<?xml version="1.0" encoding="UTF-8" standalone="no" ?>
<gpx xmlns="http://www.topografix.com/GPX/1/1" xmlns:xsi="http://www.w3.org/2001/XMLSchema-instance" xsi:schemaLocation="http://www.topografix.com/GPX/1/1 http://www.topografix.com/GPX/1/1/gpx.xsd" version="1.1" creator="VisuGPX - https://www.visugpx.com">
  <metadata>
    <name>Berre l'étang</name>
    <desc><![CDATA[Rando du 12 mai proposée par JP pour Gransrandonnée]]></desc>
  </metadata>
  <trk>
    <name><![CDATA[Berre l'étang]]></name>
    <trkseg>
      <trkpt lat="43.49495" lon="5.15401">
        <ele>-12.35986328125</ele>
        <time>2021-05-12T11:57:30Z</time>
      </trkpt>
      <trkpt lat="43.49494" lon="5.15401">
        <ele>-12.35986328125</ele>
        <time>2021-05-12T11:57:31Z</time>
      </trkpt>
      <trkpt lat="43.49494" lon="5.15397">
        <ele>-11.3984375</ele>
        <time>2021-05-12T11:57:44Z</time>
      </trkpt>
      <trkpt lat="43.49495" lon="5.15396">
        <ele>-11.3984375</ele>
        <time>2021-05-12T11:58:07Z</time>
      </trkpt>
      <trkpt lat="43.49497" lon="5.15393">
        <ele>-13.321044921875</ele>
        <time>2021-05-12T11:58:23Z</time>
      </trkpt>
      <trkpt lat="43.49496" lon="5.15392">
        <ele>-13.321044921875</ele>
        <time>2021-05-12T11:58:24Z</time>
      </trkpt>
      <trkpt lat="43.49495" lon="5.15392">
        <ele>-11.879150390625</ele>
        <time>2021-05-12T11:58:28Z</time>
      </trkpt>
      <trkpt lat="43.49492" lon="5.15386">
        <ele>-12.840454101562</ele>
        <time>2021-05-12T11:58:34Z</time>
      </trkpt>
      <trkpt lat="43.49482" lon="5.15372">
        <ele>-11.879150390625</ele>
        <time>2021-05-12T11:58:51Z</time>
      </trkpt>
      <trkpt lat="43.4948" lon="5.15364">
        <ele>-13.321044921875</ele>
        <time>2021-05-12T11:59:09Z</time>
      </trkpt>
      <trkpt lat="43.49478" lon="5.15341">
        <ele>-10.917846679688</ele>
        <time>2021-05-12T11:59:28Z</time>
      </trkpt>
      <trkpt lat="43.49475" lon="5.15317">
        <ele>-13.321044921875</ele>
        <time>2021-05-12T11:59:46Z</time>
      </trkpt>
      <trkpt lat="43.4947" lon="5.15294">
        <ele>-10.917846679688</ele>
        <time>2021-05-12T12:00:04Z</time>
      </trkpt>
      <trkpt lat="43.49469" lon="5.15291">
        <ele>-10.437255859375</ele>
        <time>2021-05-12T12:00:06Z</time>
      </trkpt>
      <trkpt lat="43.49468" lon="5.15284">
        <ele>-12.35986328125</ele>
        <time>2021-05-12T12:00:10Z</time>
      </trkpt>
      <trkpt lat="43.49462" lon="5.1525">
        <ele>-11.879150390625</ele>
        <time>2021-05-12T12:00:32Z</time>
      </trkpt>
      <trkpt lat="43.49452" lon="5.15209">
        <ele>-11.879150390625</ele>
        <time>2021-05-12T12:00:58Z</time>
      </trkpt>
      <trkpt lat="43.49446" lon="5.15181">
        <ele>-11.3984375</ele>
        <time>2021-05-12T12:01:18Z</time>
      </trkpt>
      <trkpt lat="43.49438" lon="5.15148">
        <ele>-10.437255859375</ele>
        <time>2021-05-12T12:01:39Z</time>
      </trkpt>
      <trkpt lat="43.49429" lon="5.15118">
        <ele>-10.917846679688</ele>
        <time>2021-05-12T12:01:58Z</time>
      </trkpt>
      <trkpt lat="43.49419" lon="5.15089">
        <ele>-10.437255859375</ele>
        <time>2021-05-12T12:02:17Z</time>
      </trkpt>
      <trkpt lat="43.4941" lon="5.15052">
        <ele>-10.437255859375</ele>
        <time>2021-05-12T12:02:40Z</time>
      </trkpt>
      <trkpt lat="43.49411" lon="5.1505">
        <ele>-8.9952392578125</ele>
        <time>2021-05-12T12:02:42Z</time>
      </trkpt>
      <trkpt lat="43.49424" lon="5.15035">
        <ele>-8.5146484375</ele>
        <time>2021-05-12T12:02:59Z</time>
      </trkpt>
      <trkpt lat="43.49443" lon="5.15015">
        <ele>-8.033935546875</ele>
        <time>2021-05-12T12:03:22Z</time>
      </trkpt>
      <trkpt lat="43.49448" lon="5.1501">
        <ele>-8.5146484375</ele>
        <time>2021-05-12T12:03:28Z</time>
      </trkpt>
      <trkpt lat="43.49465" lon="5.14991">
        <ele>-8.9952392578125</ele>
        <time>2021-05-12T12:03:47Z</time>
      </trkpt>
      <trkpt lat="43.49481" lon="5.14975">
        <ele>-8.9952392578125</ele>
        <time>2021-05-12T12:04:05Z</time>
      </trkpt>
      <trkpt lat="43.49507" lon="5.14951">
        <ele>-8.5146484375</ele>
        <time>2021-05-12T12:04:32Z</time>
      </trkpt>
      <trkpt lat="43.49531" lon="5.14942">
        <ele>-7.5531005859375</ele>
        <time>2021-05-12T12:04:54Z</time>
      </trkpt>
      <trkpt lat="43.49565" lon="5.14935">
        <ele>-7.072509765625</ele>
        <time>2021-05-12T12:05:21Z</time>
      </trkpt>
      <trkpt lat="43.49577" lon="5.14934">
        <ele>-6.5919189453125</ele>
        <time>2021-05-12T12:05:36Z</time>
      </trkpt>
      <trkpt lat="43.49596" lon="5.14926">
        <ele>-6.1112060546875</ele>
        <time>2021-05-12T12:05:56Z</time>
      </trkpt>
      <trkpt lat="43.49614" lon="5.14918">
        <ele>-6.1112060546875</ele>
        <time>2021-05-12T12:06:17Z</time>
      </trkpt>
      <trkpt lat="43.4963" lon="5.14911">
        <ele>-6.1112060546875</ele>
        <time>2021-05-12T12:06:33Z</time>
      </trkpt>
      <trkpt lat="43.49646" lon="5.14901">
        <ele>-5.6304931640625</ele>
        <time>2021-05-12T12:06:52Z</time>
      </trkpt>
      <trkpt lat="43.49659" lon="5.14893">
        <ele>-6.1112060546875</ele>
        <time>2021-05-12T12:07:07Z</time>
      </trkpt>
      <trkpt lat="43.49676" lon="5.14883">
        <ele>-5.6304931640625</ele>
        <time>2021-05-12T12:07:27Z</time>
      </trkpt>
      <trkpt lat="43.49698" lon="5.14868">
        <ele>-5.14990234375</ele>
        <time>2021-05-12T12:07:50Z</time>
      </trkpt>
      <trkpt lat="43.49721" lon="5.1485">
        <ele>-5.14990234375</ele>
        <time>2021-05-12T12:08:13Z</time>
      </trkpt>
      <trkpt lat="43.49737" lon="5.14842">
        <ele>-4.1885986328125</ele>
        <time>2021-05-12T12:08:29Z</time>
      </trkpt>
      <trkpt lat="43.49761" lon="5.14831">
        <ele>-4.6693115234375</ele>
        <time>2021-05-12T12:08:52Z</time>
      </trkpt>
      <trkpt lat="43.49785" lon="5.14822">
        <ele>-4.1885986328125</ele>
        <time>2021-05-12T12:09:14Z</time>
      </trkpt>
      <trkpt lat="43.49804" lon="5.14814">
        <ele>-4.6693115234375</ele>
        <time>2021-05-12T12:09:31Z</time>
      </trkpt>
      <trkpt lat="43.49831" lon="5.14799">
        <ele>-4.6693115234375</ele>
        <time>2021-05-12T12:09:58Z</time>
      </trkpt>
      <trkpt lat="43.49851" lon="5.14788">
        <ele>-4.1885986328125</ele>
        <time>2021-05-12T12:10:18Z</time>
      </trkpt>
      <trkpt lat="43.49864" lon="5.14778">
        <ele>-4.6693115234375</ele>
        <time>2021-05-12T12:10:34Z</time>
      </trkpt>
      <trkpt lat="43.49864" lon="5.14777">
        <ele>-3.7078857421875</ele>
        <time>2021-05-12T12:10:35Z</time>
      </trkpt>
      <trkpt lat="43.49871" lon="5.14768">
        <ele>-4.1885986328125</ele>
        <time>2021-05-12T12:10:43Z</time>
      </trkpt>
      <trkpt lat="43.49878" lon="5.14763">
        <ele>-3.227294921875</ele>
        <time>2021-05-12T12:10:53Z</time>
      </trkpt>
      <trkpt lat="43.49888" lon="5.14758">
        <ele>-3.7078857421875</ele>
        <time>2021-05-12T12:11:07Z</time>
      </trkpt>
      <trkpt lat="43.49904" lon="5.14744">
        <ele>-3.7078857421875</ele>
        <time>2021-05-12T12:11:24Z</time>
      </trkpt>
      <trkpt lat="43.49911" lon="5.14724">
        <ele>-3.227294921875</ele>
        <time>2021-05-12T12:11:38Z</time>
      </trkpt>
      <trkpt lat="43.49915" lon="5.14711">
        <ele>-3.7078857421875</ele>
        <time>2021-05-12T12:11:49Z</time>
      </trkpt>
      <trkpt lat="43.4993" lon="5.14679">
        <ele>-3.227294921875</ele>
        <time>2021-05-12T12:12:13Z</time>
      </trkpt>
      <trkpt lat="43.49936" lon="5.14671">
        <ele>-3.227294921875</ele>
        <time>2021-05-12T12:12:21Z</time>
      </trkpt>
      <trkpt lat="43.49964" lon="5.1464">
        <ele>-3.227294921875</ele>
        <time>2021-05-12T12:12:51Z</time>
      </trkpt>
      <trkpt lat="43.49992" lon="5.14635">
        <ele>-2.7467041015625</ele>
        <time>2021-05-12T12:13:14Z</time>
      </trkpt>
      <trkpt lat="43.5" lon="5.14639">
        <ele>-3.227294921875</ele>
        <time>2021-05-12T12:13:25Z</time>
      </trkpt>
      <trkpt lat="43.50019" lon="5.14638">
        <ele>-2.7467041015625</ele>
        <time>2021-05-12T12:13:42Z</time>
      </trkpt>
      <trkpt lat="43.50035" lon="5.14631">
        <ele>-2.7467041015625</ele>
        <time>2021-05-12T12:13:59Z</time>
      </trkpt>
      <trkpt lat="43.50041" lon="5.14625">
        <ele>-2.2659912109375</ele>
        <time>2021-05-12T12:14:05Z</time>
      </trkpt>
      <trkpt lat="43.50057" lon="5.14609">
        <ele>-2.2659912109375</ele>
        <time>2021-05-12T12:14:23Z</time>
      </trkpt>
      <trkpt lat="43.50061" lon="5.14602">
        <ele>-2.7467041015625</ele>
        <time>2021-05-12T12:14:30Z</time>
      </trkpt>
      <trkpt lat="43.50073" lon="5.14584">
        <ele>-2.7467041015625</ele>
        <time>2021-05-12T12:14:46Z</time>
      </trkpt>
      <trkpt lat="43.50089" lon="5.14576">
        <ele>-2.2659912109375</ele>
        <time>2021-05-12T12:15:02Z</time>
      </trkpt>
      <trkpt lat="43.50106" lon="5.1457">
        <ele>-2.7467041015625</ele>
        <time>2021-05-12T12:15:18Z</time>
      </trkpt>
      <trkpt lat="43.50126" lon="5.1455">
        <ele>-3.227294921875</ele>
        <time>2021-05-12T12:15:42Z</time>
      </trkpt>
      <trkpt lat="43.50138" lon="5.14545">
        <ele>-3.227294921875</ele>
        <time>2021-05-12T12:15:55Z</time>
      </trkpt>
      <trkpt lat="43.5015" lon="5.1452">
        <ele>-2.7467041015625</ele>
        <time>2021-05-12T12:16:18Z</time>
      </trkpt>
      <trkpt lat="43.50152" lon="5.14514">
        <ele>-2.2659912109375</ele>
        <time>2021-05-12T12:16:22Z</time>
      </trkpt>
      <trkpt lat="43.50151" lon="5.14499">
        <ele>-1.7852783203125</ele>
        <time>2021-05-12T12:16:27Z</time>
      </trkpt>
      <trkpt lat="43.50152" lon="5.14491">
        <ele>-2.2659912109375</ele>
        <time>2021-05-12T12:16:33Z</time>
      </trkpt>
      <trkpt lat="43.50146" lon="5.14464">
        <ele>-3.227294921875</ele>
        <time>2021-05-12T12:16:51Z</time>
      </trkpt>
      <trkpt lat="43.50145" lon="5.14429">
        <ele>-4.1885986328125</ele>
        <time>2021-05-12T12:17:13Z</time>
      </trkpt>
      <trkpt lat="43.50147" lon="5.14394">
        <ele>-2.7467041015625</ele>
        <time>2021-05-12T12:17:36Z</time>
      </trkpt>
      <trkpt lat="43.50149" lon="5.14368">
        <ele>-4.6693115234375</ele>
        <time>2021-05-12T12:17:56Z</time>
      </trkpt>
      <trkpt lat="43.50149" lon="5.14363">
        <ele>-3.227294921875</ele>
        <time>2021-05-12T12:17:59Z</time>
      </trkpt>
      <trkpt lat="43.50158" lon="5.1434">
        <ele>-3.227294921875</ele>
        <time>2021-05-12T12:18:18Z</time>
      </trkpt>
      <trkpt lat="43.50163" lon="5.14332">
        <ele>-2.7467041015625</ele>
        <time>2021-05-12T12:18:37Z</time>
      </trkpt>
      <trkpt lat="43.50169" lon="5.14319">
        <ele>-3.227294921875</ele>
        <time>2021-05-12T12:18:53Z</time>
      </trkpt>
      <trkpt lat="43.50173" lon="5.14307">
        <ele>-2.7467041015625</ele>
        <time>2021-05-12T12:19:09Z</time>
      </trkpt>
      <trkpt lat="43.50173" lon="5.14305">
        <ele>-2.7467041015625</ele>
        <time>2021-05-12T12:19:10Z</time>
      </trkpt>
      <trkpt lat="43.50183" lon="5.14281">
        <ele>-1.7852783203125</ele>
        <time>2021-05-12T12:19:32Z</time>
      </trkpt>
      <trkpt lat="43.50186" lon="5.14274">
        <ele>-1.3046875</ele>
        <time>2021-05-12T12:19:44Z</time>
      </trkpt>
      <trkpt lat="43.50189" lon="5.14262">
        <ele>-1.7852783203125</ele>
        <time>2021-05-12T12:19:56Z</time>
      </trkpt>
      <trkpt lat="43.50201" lon="5.14233">
        <ele>-0.8240966796875</ele>
        <time>2021-05-12T12:20:22Z</time>
      </trkpt>
      <trkpt lat="43.50207" lon="5.14222">
        <ele>-1.3046875</ele>
        <time>2021-05-12T12:20:36Z</time>
      </trkpt>
      <trkpt lat="43.50214" lon="5.14207">
        <ele>-1.3046875</ele>
        <time>2021-05-12T12:20:58Z</time>
      </trkpt>
      <trkpt lat="43.50214" lon="5.14208">
        <ele>-0.8240966796875</ele>
        <time>2021-05-12T12:21:11Z</time>
      </trkpt>
      <trkpt lat="43.50215" lon="5.14209">
        <ele>-0.3433837890625</ele>
        <time>2021-05-12T12:22:35Z</time>
      </trkpt>
      <trkpt lat="43.50219" lon="5.142">
        <ele>0.6180419921875</ele>
        <time>2021-05-12T12:23:42Z</time>
      </trkpt>
      <trkpt lat="43.5022" lon="5.14186">
        <ele>0.6180419921875</ele>
        <time>2021-05-12T12:23:54Z</time>
      </trkpt>
      <trkpt lat="43.50219" lon="5.14154">
        <ele>0.6180419921875</ele>
        <time>2021-05-12T12:24:17Z</time>
      </trkpt>
      <trkpt lat="43.50219" lon="5.14151">
        <ele>0.6180419921875</ele>
        <time>2021-05-12T12:24:20Z</time>
      </trkpt>
      <trkpt lat="43.50218" lon="5.14128">
        <ele>1.0986328125</ele>
        <time>2021-05-12T12:24:40Z</time>
      </trkpt>
      <trkpt lat="43.50218" lon="5.14128">
        <ele>0.6180419921875</ele>
        <time>2021-05-12T12:24:53Z</time>
      </trkpt>
      <trkpt lat="43.5022" lon="5.14119">
        <ele>0.6180419921875</ele>
        <time>2021-05-12T12:25:03Z</time>
      </trkpt>
      <trkpt lat="43.50219" lon="5.14116">
        <ele>0.137451171875</ele>
        <time>2021-05-12T12:25:05Z</time>
      </trkpt>
      <trkpt lat="43.50217" lon="5.14097">
        <ele>1.0986328125</ele>
        <time>2021-05-12T12:25:20Z</time>
      </trkpt>
      <trkpt lat="43.50216" lon="5.14092">
        <ele>1.0986328125</ele>
        <time>2021-05-12T12:25:31Z</time>
      </trkpt>
      <trkpt lat="43.50212" lon="5.14081">
        <ele>0.6180419921875</ele>
        <time>2021-05-12T12:25:40Z</time>
      </trkpt>
      <trkpt lat="43.50214" lon="5.14063">
        <ele>1.0986328125</ele>
        <time>2021-05-12T12:25:50Z</time>
      </trkpt>
      <trkpt lat="43.50215" lon="5.14058">
        <ele>0.6180419921875</ele>
        <time>2021-05-12T12:25:54Z</time>
      </trkpt>
      <trkpt lat="43.50213" lon="5.14034">
        <ele>-0.3433837890625</ele>
        <time>2021-05-12T12:26:08Z</time>
      </trkpt>
      <trkpt lat="43.50212" lon="5.1403">
        <ele>0.137451171875</ele>
        <time>2021-05-12T12:26:11Z</time>
      </trkpt>
      <trkpt lat="43.50227" lon="5.14001">
        <ele>0.6180419921875</ele>
        <time>2021-05-12T12:26:34Z</time>
      </trkpt>
      <trkpt lat="43.50237" lon="5.13971">
        <ele>0.137451171875</ele>
        <time>2021-05-12T12:26:54Z</time>
      </trkpt>
      <trkpt lat="43.50242" lon="5.13932">
        <ele>0.137451171875</ele>
        <time>2021-05-12T12:27:17Z</time>
      </trkpt>
      <trkpt lat="43.50241" lon="5.13906">
        <ele>0.6180419921875</ele>
        <time>2021-05-12T12:27:32Z</time>
      </trkpt>
      <trkpt lat="43.50244" lon="5.1387">
        <ele>0.6180419921875</ele>
        <time>2021-05-12T12:27:54Z</time>
      </trkpt>
      <trkpt lat="43.50251" lon="5.13841">
        <ele>0.6180419921875</ele>
        <time>2021-05-12T12:28:14Z</time>
      </trkpt>
      <trkpt lat="43.50259" lon="5.1381">
        <ele>0.6180419921875</ele>
        <time>2021-05-12T12:28:36Z</time>
      </trkpt>
      <trkpt lat="43.50271" lon="5.13791">
        <ele>1.579345703125</ele>
        <time>2021-05-12T12:28:53Z</time>
      </trkpt>
      <trkpt lat="43.50276" lon="5.13788">
        <ele>0.6180419921875</ele>
        <time>2021-05-12T12:29:08Z</time>
      </trkpt>
      <trkpt lat="43.50284" lon="5.13783">
        <ele>1.0986328125</ele>
        <time>2021-05-12T12:29:27Z</time>
      </trkpt>
      <trkpt lat="43.50284" lon="5.13783">
        <ele>1.0986328125</ele>
        <time>2021-05-12T12:29:28Z</time>
      </trkpt>
      <trkpt lat="43.50288" lon="5.13783">
        <ele>1.0986328125</ele>
        <time>2021-05-12T12:29:31Z</time>
      </trkpt>
      <trkpt lat="43.50298" lon="5.13772">
        <ele>2.06005859375</ele>
        <time>2021-05-12T12:29:41Z</time>
      </trkpt>
      <trkpt lat="43.50311" lon="5.13765">
        <ele>1.579345703125</ele>
        <time>2021-05-12T12:29:52Z</time>
      </trkpt>
      <trkpt lat="43.50323" lon="5.13757">
        <ele>1.579345703125</ele>
        <time>2021-05-12T12:30:04Z</time>
      </trkpt>
      <trkpt lat="43.50327" lon="5.13753">
        <ele>2.06005859375</ele>
        <time>2021-05-12T12:30:08Z</time>
      </trkpt>
      <trkpt lat="43.50338" lon="5.13738">
        <ele>1.579345703125</ele>
        <time>2021-05-12T12:30:22Z</time>
      </trkpt>
      <trkpt lat="43.50347" lon="5.13723">
        <ele>1.579345703125</ele>
        <time>2021-05-12T12:30:34Z</time>
      </trkpt>
      <trkpt lat="43.50354" lon="5.13707">
        <ele>1.579345703125</ele>
        <time>2021-05-12T12:30:47Z</time>
      </trkpt>
      <trkpt lat="43.50364" lon="5.1369">
        <ele>1.579345703125</ele>
        <time>2021-05-12T12:30:59Z</time>
      </trkpt>
      <trkpt lat="43.50376" lon="5.13654">
        <ele>0.6180419921875</ele>
        <time>2021-05-12T12:31:22Z</time>
      </trkpt>
      <trkpt lat="43.50383" lon="5.13627">
        <ele>1.0986328125</ele>
        <time>2021-05-12T12:31:40Z</time>
      </trkpt>
      <trkpt lat="43.5039" lon="5.13607">
        <ele>-0.3433837890625</ele>
        <time>2021-05-12T12:31:54Z</time>
      </trkpt>
      <trkpt lat="43.50401" lon="5.13566">
        <ele>0.6180419921875</ele>
        <time>2021-05-12T12:32:20Z</time>
      </trkpt>
      <trkpt lat="43.50408" lon="5.13543">
        <ele>1.0986328125</ele>
        <time>2021-05-12T12:32:34Z</time>
      </trkpt>
      <trkpt lat="43.50411" lon="5.13506">
        <ele>1.0986328125</ele>
        <time>2021-05-12T12:32:57Z</time>
      </trkpt>
      <trkpt lat="43.50422" lon="5.13468">
        <ele>1.579345703125</ele>
        <time>2021-05-12T12:33:20Z</time>
      </trkpt>
      <trkpt lat="43.50428" lon="5.13449">
        <ele>0.6180419921875</ele>
        <time>2021-05-12T12:33:32Z</time>
      </trkpt>
      <trkpt lat="43.50429" lon="5.13415">
        <ele>0.6180419921875</ele>
        <time>2021-05-12T12:33:51Z</time>
      </trkpt>
      <trkpt lat="43.50432" lon="5.13386">
        <ele>2.06005859375</ele>
        <time>2021-05-12T12:34:10Z</time>
      </trkpt>
      <trkpt lat="43.50433" lon="5.13374">
        <ele>0.6180419921875</ele>
        <time>2021-05-12T12:34:17Z</time>
      </trkpt>
      <trkpt lat="43.50436" lon="5.13367">
        <ele>1.579345703125</ele>
        <time>2021-05-12T12:34:22Z</time>
      </trkpt>
      <trkpt lat="43.50445" lon="5.1334">
        <ele>1.0986328125</ele>
        <time>2021-05-12T12:34:39Z</time>
      </trkpt>
      <trkpt lat="43.50452" lon="5.13322">
        <ele>1.0986328125</ele>
        <time>2021-05-12T12:34:53Z</time>
      </trkpt>
      <trkpt lat="43.50454" lon="5.13315">
        <ele>1.579345703125</ele>
        <time>2021-05-12T12:34:57Z</time>
      </trkpt>
      <trkpt lat="43.50461" lon="5.13291">
        <ele>1.579345703125</ele>
        <time>2021-05-12T12:35:15Z</time>
      </trkpt>
      <trkpt lat="43.50467" lon="5.13268">
        <ele>2.5406494140625</ele>
        <time>2021-05-12T12:35:32Z</time>
      </trkpt>
      <trkpt lat="43.50472" lon="5.13253">
        <ele>3.021240234375</ele>
        <time>2021-05-12T12:35:43Z</time>
      </trkpt>
      <trkpt lat="43.50475" lon="5.13242">
        <ele>3.982666015625</ele>
        <time>2021-05-12T12:36:00Z</time>
      </trkpt>
      <trkpt lat="43.50476" lon="5.13238">
        <ele>3.982666015625</ele>
        <time>2021-05-12T12:37:43Z</time>
      </trkpt>
      <trkpt lat="43.50475" lon="5.13223">
        <ele>3.021240234375</ele>
        <time>2021-05-12T12:38:06Z</time>
      </trkpt>
      <trkpt lat="43.5048" lon="5.1319">
        <ele>3.021240234375</ele>
        <time>2021-05-12T12:38:31Z</time>
      </trkpt>
      <trkpt lat="43.50483" lon="5.13141">
        <ele>3.021240234375</ele>
        <time>2021-05-12T12:39:01Z</time>
      </trkpt>
      <trkpt lat="43.50486" lon="5.13107">
        <ele>3.021240234375</ele>
        <time>2021-05-12T12:39:22Z</time>
      </trkpt>
      <trkpt lat="43.50486" lon="5.13065">
        <ele>3.501953125</ele>
        <time>2021-05-12T12:39:48Z</time>
      </trkpt>
      <trkpt lat="43.50478" lon="5.13029">
        <ele>3.021240234375</ele>
        <time>2021-05-12T12:40:14Z</time>
      </trkpt>
      <trkpt lat="43.50476" lon="5.1299">
        <ele>2.5406494140625</ele>
        <time>2021-05-12T12:40:40Z</time>
      </trkpt>
      <trkpt lat="43.50477" lon="5.12964">
        <ele>3.021240234375</ele>
        <time>2021-05-12T12:41:01Z</time>
      </trkpt>
      <trkpt lat="43.50477" lon="5.12923">
        <ele>3.501953125</ele>
        <time>2021-05-12T12:41:26Z</time>
      </trkpt>
      <trkpt lat="43.50469" lon="5.12886">
        <ele>3.501953125</ele>
        <time>2021-05-12T12:41:48Z</time>
      </trkpt>
      <trkpt lat="43.50467" lon="5.12868">
        <ele>3.021240234375</ele>
        <time>2021-05-12T12:42:11Z</time>
      </trkpt>
      <trkpt lat="43.50463" lon="5.12827">
        <ele>3.501953125</ele>
        <time>2021-05-12T12:42:38Z</time>
      </trkpt>
      <trkpt lat="43.50455" lon="5.12801">
        <ele>3.501953125</ele>
        <time>2021-05-12T12:42:58Z</time>
      </trkpt>
      <trkpt lat="43.50443" lon="5.12779">
        <ele>3.501953125</ele>
        <time>2021-05-12T12:43:17Z</time>
      </trkpt>
      <trkpt lat="43.50439" lon="5.1277">
        <ele>3.501953125</ele>
        <time>2021-05-12T12:43:23Z</time>
      </trkpt>
      <trkpt lat="43.50437" lon="5.12746">
        <ele>3.021240234375</ele>
        <time>2021-05-12T12:43:40Z</time>
      </trkpt>
      <trkpt lat="43.50435" lon="5.12725">
        <ele>3.501953125</ele>
        <time>2021-05-12T12:43:56Z</time>
      </trkpt>
      <trkpt lat="43.50432" lon="5.12687">
        <ele>3.501953125</ele>
        <time>2021-05-12T12:44:22Z</time>
      </trkpt>
      <trkpt lat="43.50427" lon="5.12643">
        <ele>3.021240234375</ele>
        <time>2021-05-12T12:44:48Z</time>
      </trkpt>
      <trkpt lat="43.50431" lon="5.1262">
        <ele>2.5406494140625</ele>
        <time>2021-05-12T12:45:05Z</time>
      </trkpt>
      <trkpt lat="43.50434" lon="5.12616">
        <ele>2.5406494140625</ele>
        <time>2021-05-12T12:45:10Z</time>
      </trkpt>
      <trkpt lat="43.50436" lon="5.1261">
        <ele>3.021240234375</ele>
        <time>2021-05-12T12:45:15Z</time>
      </trkpt>
      <trkpt lat="43.50439" lon="5.1259">
        <ele>3.501953125</ele>
        <time>2021-05-12T12:45:29Z</time>
      </trkpt>
      <trkpt lat="43.50445" lon="5.12573">
        <ele>3.982666015625</ele>
        <time>2021-05-12T12:45:43Z</time>
      </trkpt>
      <trkpt lat="43.50455" lon="5.12554">
        <ele>3.982666015625</ele>
        <time>2021-05-12T12:45:59Z</time>
      </trkpt>
      <trkpt lat="43.50456" lon="5.12551">
        <ele>3.982666015625</ele>
        <time>2021-05-12T12:46:02Z</time>
      </trkpt>
      <trkpt lat="43.50457" lon="5.12547">
        <ele>4.4632568359375</ele>
        <time>2021-05-12T12:46:05Z</time>
      </trkpt>
      <trkpt lat="43.50469" lon="5.12525">
        <ele>3.982666015625</ele>
        <time>2021-05-12T12:46:25Z</time>
      </trkpt>
      <trkpt lat="43.5048" lon="5.12506">
        <ele>4.4632568359375</ele>
        <time>2021-05-12T12:46:41Z</time>
      </trkpt>
      <trkpt lat="43.50492" lon="5.12487">
        <ele>4.4632568359375</ele>
        <time>2021-05-12T12:46:56Z</time>
      </trkpt>
      <trkpt lat="43.50504" lon="5.1248">
        <ele>3.982666015625</ele>
        <time>2021-05-12T12:47:11Z</time>
      </trkpt>
      <trkpt lat="43.50527" lon="5.12463">
        <ele>3.501953125</ele>
        <time>2021-05-12T12:47:35Z</time>
      </trkpt>
      <trkpt lat="43.50542" lon="5.12437">
        <ele>3.982666015625</ele>
        <time>2021-05-12T12:48:00Z</time>
      </trkpt>
      <trkpt lat="43.50558" lon="5.12408">
        <ele>3.982666015625</ele>
        <time>2021-05-12T12:48:25Z</time>
      </trkpt>
      <trkpt lat="43.50567" lon="5.12386">
        <ele>4.4632568359375</ele>
        <time>2021-05-12T12:48:41Z</time>
      </trkpt>
      <trkpt lat="43.50576" lon="5.12363">
        <ele>4.4632568359375</ele>
        <time>2021-05-12T12:48:59Z</time>
      </trkpt>
      <trkpt lat="43.50587" lon="5.12368">
        <ele>4.94384765625</ele>
        <time>2021-05-12T12:49:16Z</time>
      </trkpt>
      <trkpt lat="43.50595" lon="5.12341">
        <ele>5.424560546875</ele>
        <time>2021-05-12T12:49:46Z</time>
      </trkpt>
      <trkpt lat="43.50608" lon="5.12324">
        <ele>5.9052734375</ele>
        <time>2021-05-12T12:50:06Z</time>
      </trkpt>
      <trkpt lat="43.50616" lon="5.12316">
        <ele>5.9052734375</ele>
        <time>2021-05-12T12:50:28Z</time>
      </trkpt>
      <trkpt lat="43.50623" lon="5.12301">
        <ele>6.3858642578125</ele>
        <time>2021-05-12T12:50:47Z</time>
      </trkpt>
      <trkpt lat="43.50629" lon="5.1228">
        <ele>6.3858642578125</ele>
        <time>2021-05-12T12:51:06Z</time>
      </trkpt>
      <trkpt lat="43.50641" lon="5.12262">
        <ele>6.3858642578125</ele>
        <time>2021-05-12T12:51:28Z</time>
      </trkpt>
      <trkpt lat="43.50653" lon="5.12242">
        <ele>5.9052734375</ele>
        <time>2021-05-12T12:51:49Z</time>
      </trkpt>
      <trkpt lat="43.50667" lon="5.12226">
        <ele>6.3858642578125</ele>
        <time>2021-05-12T12:52:08Z</time>
      </trkpt>
      <trkpt lat="43.50676" lon="5.12214">
        <ele>6.866455078125</ele>
        <time>2021-05-12T12:52:29Z</time>
      </trkpt>
      <trkpt lat="43.50676" lon="5.12215">
        <ele>6.3858642578125</ele>
        <time>2021-05-12T12:53:02Z</time>
      </trkpt>
      <trkpt lat="43.50676" lon="5.12216">
        <ele>6.3858642578125</ele>
        <time>2021-05-12T12:53:29Z</time>
      </trkpt>
      <trkpt lat="43.50679" lon="5.12214">
        <ele>6.866455078125</ele>
        <time>2021-05-12T12:54:18Z</time>
      </trkpt>
      <trkpt lat="43.50686" lon="5.12208">
        <ele>6.3858642578125</ele>
        <time>2021-05-12T12:54:36Z</time>
      </trkpt>
      <trkpt lat="43.50694" lon="5.12191">
        <ele>6.3858642578125</ele>
        <time>2021-05-12T12:54:53Z</time>
      </trkpt>
      <trkpt lat="43.50704" lon="5.12179">
        <ele>6.3858642578125</ele>
        <time>2021-05-12T12:55:04Z</time>
      </trkpt>
      <trkpt lat="43.50716" lon="5.12165">
        <ele>6.3858642578125</ele>
        <time>2021-05-12T12:55:24Z</time>
      </trkpt>
      <trkpt lat="43.5073" lon="5.12155">
        <ele>6.3858642578125</ele>
        <time>2021-05-12T12:55:45Z</time>
      </trkpt>
      <trkpt lat="43.50733" lon="5.12148">
        <ele>6.866455078125</ele>
        <time>2021-05-12T12:56:46Z</time>
      </trkpt>
      <trkpt lat="43.5074" lon="5.12137">
        <ele>6.3858642578125</ele>
        <time>2021-05-12T12:56:56Z</time>
      </trkpt>
      <trkpt lat="43.50751" lon="5.12111">
        <ele>5.9052734375</ele>
        <time>2021-05-12T12:57:18Z</time>
      </trkpt>
      <trkpt lat="43.50754" lon="5.12103">
        <ele>6.3858642578125</ele>
        <time>2021-05-12T12:57:24Z</time>
      </trkpt>
      <trkpt lat="43.5076" lon="5.12076">
        <ele>5.424560546875</ele>
        <time>2021-05-12T12:57:43Z</time>
      </trkpt>
      <trkpt lat="43.50761" lon="5.12059">
        <ele>6.866455078125</ele>
        <time>2021-05-12T12:57:58Z</time>
      </trkpt>
      <trkpt lat="43.50761" lon="5.12041">
        <ele>5.9052734375</ele>
        <time>2021-05-12T12:58:25Z</time>
      </trkpt>
      <trkpt lat="43.50763" lon="5.12019">
        <ele>5.9052734375</ele>
        <time>2021-05-12T12:58:40Z</time>
      </trkpt>
      <trkpt lat="43.50762" lon="5.12007">
        <ele>5.9052734375</ele>
        <time>2021-05-12T12:58:50Z</time>
      </trkpt>
      <trkpt lat="43.5076" lon="5.12">
        <ele>5.424560546875</ele>
        <time>2021-05-12T12:58:54Z</time>
      </trkpt>
      <trkpt lat="43.50756" lon="5.11975">
        <ele>5.424560546875</ele>
        <time>2021-05-12T12:59:10Z</time>
      </trkpt>
      <trkpt lat="43.50756" lon="5.11973">
        <ele>5.424560546875</ele>
        <time>2021-05-12T12:59:11Z</time>
      </trkpt>
      <trkpt lat="43.50751" lon="5.11953">
        <ele>5.424560546875</ele>
        <time>2021-05-12T12:59:25Z</time>
      </trkpt>
      <trkpt lat="43.5075" lon="5.1195">
        <ele>5.424560546875</ele>
        <time>2021-05-12T12:59:28Z</time>
      </trkpt>
      <trkpt lat="43.50749" lon="5.11937">
        <ele>5.424560546875</ele>
        <time>2021-05-12T12:59:35Z</time>
      </trkpt>
      <trkpt lat="43.50748" lon="5.11933">
        <ele>5.424560546875</ele>
        <time>2021-05-12T12:59:38Z</time>
      </trkpt>
      <trkpt lat="43.50743" lon="5.11911">
        <ele>5.424560546875</ele>
        <time>2021-05-12T12:59:54Z</time>
      </trkpt>
      <trkpt lat="43.5074" lon="5.11882">
        <ele>6.3858642578125</ele>
        <time>2021-05-12T13:00:15Z</time>
      </trkpt>
      <trkpt lat="43.50737" lon="5.11862">
        <ele>5.424560546875</ele>
        <time>2021-05-12T13:00:31Z</time>
      </trkpt>
      <trkpt lat="43.50735" lon="5.11834">
        <ele>4.94384765625</ele>
        <time>2021-05-12T13:00:48Z</time>
      </trkpt>
      <trkpt lat="43.50731" lon="5.11812">
        <ele>5.9052734375</ele>
        <time>2021-05-12T13:01:03Z</time>
      </trkpt>
      <trkpt lat="43.50726" lon="5.11789">
        <ele>5.424560546875</ele>
        <time>2021-05-12T13:01:19Z</time>
      </trkpt>
      <trkpt lat="43.50721" lon="5.11766">
        <ele>4.4632568359375</ele>
        <time>2021-05-12T13:01:36Z</time>
      </trkpt>
      <trkpt lat="43.50715" lon="5.11736">
        <ele>4.94384765625</ele>
        <time>2021-05-12T13:01:55Z</time>
      </trkpt>
      <trkpt lat="43.50712" lon="5.11725">
        <ele>4.4632568359375</ele>
        <time>2021-05-12T13:02:03Z</time>
      </trkpt>
      <trkpt lat="43.50711" lon="5.11717">
        <ele>4.94384765625</ele>
        <time>2021-05-12T13:02:09Z</time>
      </trkpt>
      <trkpt lat="43.50708" lon="5.11696">
        <ele>4.94384765625</ele>
        <time>2021-05-12T13:02:22Z</time>
      </trkpt>
      <trkpt lat="43.50708" lon="5.11675">
        <ele>4.4632568359375</ele>
        <time>2021-05-12T13:02:37Z</time>
      </trkpt>
      <trkpt lat="43.50701" lon="5.11648">
        <ele>4.94384765625</ele>
        <time>2021-05-12T13:02:55Z</time>
      </trkpt>
      <trkpt lat="43.50698" lon="5.11609">
        <ele>4.94384765625</ele>
        <time>2021-05-12T13:03:22Z</time>
      </trkpt>
      <trkpt lat="43.50698" lon="5.11607">
        <ele>4.4632568359375</ele>
        <time>2021-05-12T13:03:24Z</time>
      </trkpt>
      <trkpt lat="43.50693" lon="5.11569">
        <ele>3.982666015625</ele>
        <time>2021-05-12T13:03:50Z</time>
      </trkpt>
      <trkpt lat="43.50688" lon="5.11526">
        <ele>4.4632568359375</ele>
        <time>2021-05-12T13:04:17Z</time>
      </trkpt>
      <trkpt lat="43.50685" lon="5.11505">
        <ele>3.982666015625</ele>
        <time>2021-05-12T13:04:32Z</time>
      </trkpt>
      <trkpt lat="43.5068" lon="5.11471">
        <ele>3.501953125</ele>
        <time>2021-05-12T13:04:54Z</time>
      </trkpt>
      <trkpt lat="43.5068" lon="5.11466">
        <ele>3.982666015625</ele>
        <time>2021-05-12T13:04:59Z</time>
      </trkpt>
      <trkpt lat="43.50679" lon="5.11442">
        <ele>3.501953125</ele>
        <time>2021-05-12T13:05:15Z</time>
      </trkpt>
      <trkpt lat="43.50677" lon="5.11435">
        <ele>3.501953125</ele>
        <time>2021-05-12T13:05:21Z</time>
      </trkpt>
      <trkpt lat="43.50677" lon="5.11429">
        <ele>3.501953125</ele>
        <time>2021-05-12T13:05:25Z</time>
      </trkpt>
      <trkpt lat="43.50675" lon="5.11414">
        <ele>3.501953125</ele>
        <time>2021-05-12T13:05:36Z</time>
      </trkpt>
      <trkpt lat="43.50673" lon="5.11388">
        <ele>3.982666015625</ele>
        <time>2021-05-12T13:05:53Z</time>
      </trkpt>
      <trkpt lat="43.50669" lon="5.11369">
        <ele>3.501953125</ele>
        <time>2021-05-12T13:06:11Z</time>
      </trkpt>
      <trkpt lat="43.50671" lon="5.11359">
        <ele>3.501953125</ele>
        <time>2021-05-12T13:06:27Z</time>
      </trkpt>
      <trkpt lat="43.50672" lon="5.11359">
        <ele>3.501953125</ele>
        <time>2021-05-12T13:06:29Z</time>
      </trkpt>
      <trkpt lat="43.50686" lon="5.11366">
        <ele>3.021240234375</ele>
        <time>2021-05-12T13:06:46Z</time>
      </trkpt>
      <trkpt lat="43.50692" lon="5.11368">
        <ele>3.021240234375</ele>
        <time>2021-05-12T13:07:17Z</time>
      </trkpt>
      <trkpt lat="43.50692" lon="5.11368">
        <ele>-0.3433837890625</ele>
        <time>2021-05-12T13:11:03Z</time>
      </trkpt>
      <trkpt lat="43.50691" lon="5.11364">
        <ele>-0.3433837890625</ele>
        <time>2021-05-12T13:11:29Z</time>
      </trkpt>
      <trkpt lat="43.50679" lon="5.11352">
        <ele>0.137451171875</ele>
        <time>2021-05-12T13:11:48Z</time>
      </trkpt>
      <trkpt lat="43.50674" lon="5.11353">
        <ele>1.0986328125</ele>
        <time>2021-05-12T13:11:51Z</time>
      </trkpt>
      <trkpt lat="43.50672" lon="5.11348">
        <ele>-0.3433837890625</ele>
        <time>2021-05-12T13:11:55Z</time>
      </trkpt>
      <trkpt lat="43.50669" lon="5.11346">
        <ele>2.06005859375</ele>
        <time>2021-05-12T13:12:02Z</time>
      </trkpt>
      <trkpt lat="43.50668" lon="5.11345">
        <ele>-1.3046875</ele>
        <time>2021-05-12T13:12:47Z</time>
      </trkpt>
      <trkpt lat="43.50658" lon="5.1132">
        <ele>-2.7467041015625</ele>
        <time>2021-05-12T13:13:10Z</time>
      </trkpt>
      <trkpt lat="43.50652" lon="5.11314">
        <ele>-1.7852783203125</ele>
        <time>2021-05-12T13:13:20Z</time>
      </trkpt>
      <trkpt lat="43.5065" lon="5.11311">
        <ele>-0.8240966796875</ele>
        <time>2021-05-12T13:13:25Z</time>
      </trkpt>
      <trkpt lat="43.50642" lon="5.11317">
        <ele>1.0986328125</ele>
        <time>2021-05-12T13:13:35Z</time>
      </trkpt>
      <trkpt lat="43.50628" lon="5.11331">
        <ele>1.0986328125</ele>
        <time>2021-05-12T13:13:51Z</time>
      </trkpt>
      <trkpt lat="43.50613" lon="5.11346">
        <ele>1.579345703125</ele>
        <time>2021-05-12T13:14:10Z</time>
      </trkpt>
      <trkpt lat="43.50611" lon="5.11344">
        <ele>0.137451171875</ele>
        <time>2021-05-12T13:14:12Z</time>
      </trkpt>
      <trkpt lat="43.50595" lon="5.11347">
        <ele>0.137451171875</ele>
        <time>2021-05-12T13:14:28Z</time>
      </trkpt>
      <trkpt lat="43.50589" lon="5.11346">
        <ele>0.137451171875</ele>
        <time>2021-05-12T13:14:37Z</time>
      </trkpt>
      <trkpt lat="43.50584" lon="5.11359">
        <ele>-0.3433837890625</ele>
        <time>2021-05-12T13:14:49Z</time>
      </trkpt>
      <trkpt lat="43.5058" lon="5.1138">
        <ele>-0.3433837890625</ele>
        <time>2021-05-12T13:15:08Z</time>
      </trkpt>
      <trkpt lat="43.50572" lon="5.11391">
        <ele>-0.3433837890625</ele>
        <time>2021-05-12T13:15:23Z</time>
      </trkpt>
      <trkpt lat="43.50558" lon="5.11404">
        <ele>0.6180419921875</ele>
        <time>2021-05-12T13:15:40Z</time>
      </trkpt>
      <trkpt lat="43.50555" lon="5.11406">
        <ele>0.6180419921875</ele>
        <time>2021-05-12T13:15:43Z</time>
      </trkpt>
      <trkpt lat="43.50553" lon="5.11407">
        <ele>0.137451171875</ele>
        <time>2021-05-12T13:15:45Z</time>
      </trkpt>
      <trkpt lat="43.50534" lon="5.11416">
        <ele>-0.3433837890625</ele>
        <time>2021-05-12T13:16:04Z</time>
      </trkpt>
      <trkpt lat="43.50532" lon="5.11419">
        <ele>0.6180419921875</ele>
        <time>2021-05-12T13:16:19Z</time>
      </trkpt>
      <trkpt lat="43.5053" lon="5.11417">
        <ele>0.137451171875</ele>
        <time>2021-05-12T13:16:50Z</time>
      </trkpt>
      <trkpt lat="43.50527" lon="5.11423">
        <ele>0.137451171875</ele>
        <time>2021-05-12T13:17:02Z</time>
      </trkpt>
      <trkpt lat="43.50526" lon="5.1143">
        <ele>0.137451171875</ele>
        <time>2021-05-12T13:17:08Z</time>
      </trkpt>
      <trkpt lat="43.50526" lon="5.1144">
        <ele>0.137451171875</ele>
        <time>2021-05-12T13:17:15Z</time>
      </trkpt>
      <trkpt lat="43.50526" lon="5.11453">
        <ele>0.6180419921875</ele>
        <time>2021-05-12T13:17:26Z</time>
      </trkpt>
      <trkpt lat="43.50522" lon="5.11469">
        <ele>0.6180419921875</ele>
        <time>2021-05-12T13:17:45Z</time>
      </trkpt>
      <trkpt lat="43.50514" lon="5.11478">
        <ele>0.6180419921875</ele>
        <time>2021-05-12T13:17:58Z</time>
      </trkpt>
      <trkpt lat="43.50504" lon="5.11484">
        <ele>0.137451171875</ele>
        <time>2021-05-12T13:18:11Z</time>
      </trkpt>
      <trkpt lat="43.50498" lon="5.11489">
        <ele>1.0986328125</ele>
        <time>2021-05-12T13:18:21Z</time>
      </trkpt>
      <trkpt lat="43.50491" lon="5.11492">
        <ele>0.6180419921875</ele>
        <time>2021-05-12T13:18:34Z</time>
      </trkpt>
      <trkpt lat="43.50474" lon="5.11498">
        <ele>0.137451171875</ele>
        <time>2021-05-12T13:18:52Z</time>
      </trkpt>
      <trkpt lat="43.50455" lon="5.11499">
        <ele>0.6180419921875</ele>
        <time>2021-05-12T13:19:11Z</time>
      </trkpt>
      <trkpt lat="43.50452" lon="5.11498">
        <ele>-1.7852783203125</ele>
        <time>2021-05-12T13:19:17Z</time>
      </trkpt>
      <trkpt lat="43.50433" lon="5.11494">
        <ele>-1.7852783203125</ele>
        <time>2021-05-12T13:19:34Z</time>
      </trkpt>
      <trkpt lat="43.50427" lon="5.11496">
        <ele>-1.3046875</ele>
        <time>2021-05-12T13:19:40Z</time>
      </trkpt>
      <trkpt lat="43.50424" lon="5.1151">
        <ele>0.6180419921875</ele>
        <time>2021-05-12T13:19:53Z</time>
      </trkpt>
      <trkpt lat="43.50423" lon="5.11516">
        <ele>-0.8240966796875</ele>
        <time>2021-05-12T13:19:57Z</time>
      </trkpt>
      <trkpt lat="43.50421" lon="5.11517">
        <ele>-0.8240966796875</ele>
        <time>2021-05-12T13:19:59Z</time>
      </trkpt>
      <trkpt lat="43.50408" lon="5.11531">
        <ele>-0.3433837890625</ele>
        <time>2021-05-12T13:20:16Z</time>
      </trkpt>
      <trkpt lat="43.50407" lon="5.11531">
        <ele>0.137451171875</ele>
        <time>2021-05-12T13:20:17Z</time>
      </trkpt>
      <trkpt lat="43.5039" lon="5.11542">
        <ele>-0.8240966796875</ele>
        <time>2021-05-12T13:20:35Z</time>
      </trkpt>
      <trkpt lat="43.50371" lon="5.1155">
        <ele>-0.3433837890625</ele>
        <time>2021-05-12T13:20:52Z</time>
      </trkpt>
      <trkpt lat="43.50352" lon="5.11552">
        <ele>-1.3046875</ele>
        <time>2021-05-12T13:21:11Z</time>
      </trkpt>
      <trkpt lat="43.50348" lon="5.11556">
        <ele>-0.3433837890625</ele>
        <time>2021-05-12T13:21:21Z</time>
      </trkpt>
      <trkpt lat="43.50339" lon="5.11556">
        <ele>-0.8240966796875</ele>
        <time>2021-05-12T13:21:38Z</time>
      </trkpt>
      <trkpt lat="43.50343" lon="5.11558">
        <ele>-2.2659912109375</ele>
        <time>2021-05-12T13:22:11Z</time>
      </trkpt>
      <trkpt lat="43.50345" lon="5.1156">
        <ele>-0.8240966796875</ele>
        <time>2021-05-12T13:22:13Z</time>
      </trkpt>
      <trkpt lat="43.50344" lon="5.11566">
        <ele>-0.3433837890625</ele>
        <time>2021-05-12T13:22:20Z</time>
      </trkpt>
      <trkpt lat="43.50337" lon="5.11581">
        <ele>0.6180419921875</ele>
        <time>2021-05-12T13:22:37Z</time>
      </trkpt>
      <trkpt lat="43.50334" lon="5.11588">
        <ele>-2.2659912109375</ele>
        <time>2021-05-12T13:22:52Z</time>
      </trkpt>
      <trkpt lat="43.50334" lon="5.11588">
        <ele>-1.3046875</ele>
        <time>2021-05-12T13:22:56Z</time>
      </trkpt>
      <trkpt lat="43.50332" lon="5.11591">
        <ele>0.137451171875</ele>
        <time>2021-05-12T13:22:59Z</time>
      </trkpt>
      <trkpt lat="43.50329" lon="5.11592">
        <ele>0.137451171875</ele>
        <time>2021-05-12T13:23:01Z</time>
      </trkpt>
      <trkpt lat="43.50324" lon="5.11601">
        <ele>1.0986328125</ele>
        <time>2021-05-12T13:23:14Z</time>
      </trkpt>
      <trkpt lat="43.5032" lon="5.11599">
        <ele>0.137451171875</ele>
        <time>2021-05-12T13:23:36Z</time>
      </trkpt>
      <trkpt lat="43.50312" lon="5.11602">
        <ele>-1.3046875</ele>
        <time>2021-05-12T13:23:49Z</time>
      </trkpt>
      <trkpt lat="43.50306" lon="5.11602">
        <ele>-1.7852783203125</ele>
        <time>2021-05-12T13:23:56Z</time>
      </trkpt>
      <trkpt lat="43.50302" lon="5.11602">
        <ele>-0.3433837890625</ele>
        <time>2021-05-12T13:24:02Z</time>
      </trkpt>
      <trkpt lat="43.50297" lon="5.11601">
        <ele>-1.7852783203125</ele>
        <time>2021-05-12T13:24:13Z</time>
      </trkpt>
      <trkpt lat="43.50295" lon="5.116">
        <ele>-2.7467041015625</ele>
        <time>2021-05-12T13:24:15Z</time>
      </trkpt>
      <trkpt lat="43.50293" lon="5.11602">
        <ele>-0.3433837890625</ele>
        <time>2021-05-12T13:24:18Z</time>
      </trkpt>
      <trkpt lat="43.50289" lon="5.11608">
        <ele>0.137451171875</ele>
        <time>2021-05-12T13:24:30Z</time>
      </trkpt>
      <trkpt lat="43.50289" lon="5.11608">
        <ele>0.137451171875</ele>
        <time>2021-05-12T13:24:41Z</time>
      </trkpt>
      <trkpt lat="43.50284" lon="5.11605">
        <ele>-0.3433837890625</ele>
        <time>2021-05-12T13:24:45Z</time>
      </trkpt>
      <trkpt lat="43.50274" lon="5.11607">
        <ele>-0.3433837890625</ele>
        <time>2021-05-12T13:25:00Z</time>
      </trkpt>
      <trkpt lat="43.50271" lon="5.11613">
        <ele>-0.3433837890625</ele>
        <time>2021-05-12T13:25:08Z</time>
      </trkpt>
      <trkpt lat="43.5027" lon="5.11629">
        <ele>-0.8240966796875</ele>
        <time>2021-05-12T13:25:22Z</time>
      </trkpt>
      <trkpt lat="43.50273" lon="5.11646">
        <ele>-0.8240966796875</ele>
        <time>2021-05-12T13:25:43Z</time>
      </trkpt>
      <trkpt lat="43.5027" lon="5.11666">
        <ele>-0.8240966796875</ele>
        <time>2021-05-12T13:26:05Z</time>
      </trkpt>
      <trkpt lat="43.50262" lon="5.11679">
        <ele>-0.8240966796875</ele>
        <time>2021-05-12T13:26:23Z</time>
      </trkpt>
      <trkpt lat="43.50258" lon="5.11682">
        <ele>-1.7852783203125</ele>
        <time>2021-05-12T13:26:51Z</time>
      </trkpt>
      <trkpt lat="43.50254" lon="5.11685">
        <ele>-0.8240966796875</ele>
        <time>2021-05-12T13:27:21Z</time>
      </trkpt>
      <trkpt lat="43.50244" lon="5.11688">
        <ele>-0.8240966796875</ele>
        <time>2021-05-12T13:27:44Z</time>
      </trkpt>
      <trkpt lat="43.50236" lon="5.11692">
        <ele>-0.3433837890625</ele>
        <time>2021-05-12T13:27:52Z</time>
      </trkpt>
      <trkpt lat="43.50233" lon="5.11694">
        <ele>-1.3046875</ele>
        <time>2021-05-12T13:27:55Z</time>
      </trkpt>
      <trkpt lat="43.50232" lon="5.11696">
        <ele>-1.3046875</ele>
        <time>2021-05-12T13:27:59Z</time>
      </trkpt>
      <trkpt lat="43.50217" lon="5.11705">
        <ele>-1.3046875</ele>
        <time>2021-05-12T13:28:13Z</time>
      </trkpt>
      <trkpt lat="43.50211" lon="5.11711">
        <ele>-1.3046875</ele>
        <time>2021-05-12T13:28:30Z</time>
      </trkpt>
      <trkpt lat="43.50212" lon="5.11728">
        <ele>-1.7852783203125</ele>
        <time>2021-05-12T13:28:47Z</time>
      </trkpt>
      <trkpt lat="43.50216" lon="5.11748">
        <ele>-1.3046875</ele>
        <time>2021-05-12T13:29:05Z</time>
      </trkpt>
      <trkpt lat="43.50219" lon="5.11768">
        <ele>-1.3046875</ele>
        <time>2021-05-12T13:29:23Z</time>
      </trkpt>
      <trkpt lat="43.50221" lon="5.11784">
        <ele>-1.7852783203125</ele>
        <time>2021-05-12T13:29:40Z</time>
      </trkpt>
      <trkpt lat="43.50226" lon="5.11801">
        <ele>-1.7852783203125</ele>
        <time>2021-05-12T13:29:56Z</time>
      </trkpt>
      <trkpt lat="43.50232" lon="5.1182">
        <ele>-1.7852783203125</ele>
        <time>2021-05-12T13:30:12Z</time>
      </trkpt>
      <trkpt lat="43.50229" lon="5.11826">
        <ele>-1.7852783203125</ele>
        <time>2021-05-12T13:30:28Z</time>
      </trkpt>
      <trkpt lat="43.50238" lon="5.11836">
        <ele>-1.7852783203125</ele>
        <time>2021-05-12T13:31:20Z</time>
      </trkpt>
      <trkpt lat="43.50242" lon="5.11843">
        <ele>-1.3046875</ele>
        <time>2021-05-12T13:31:39Z</time>
      </trkpt>
      <trkpt lat="43.50245" lon="5.11857">
        <ele>-0.8240966796875</ele>
        <time>2021-05-12T13:31:55Z</time>
      </trkpt>
      <trkpt lat="43.50237" lon="5.11848">
        <ele>-1.7852783203125</ele>
        <time>2021-05-12T13:32:18Z</time>
      </trkpt>
      <trkpt lat="43.50229" lon="5.11859">
        <ele>-1.3046875</ele>
        <time>2021-05-12T13:32:31Z</time>
      </trkpt>
      <trkpt lat="43.50227" lon="5.1187">
        <ele>-1.7852783203125</ele>
        <time>2021-05-12T13:32:48Z</time>
      </trkpt>
      <trkpt lat="43.50221" lon="5.11884">
        <ele>-1.7852783203125</ele>
        <time>2021-05-12T13:33:07Z</time>
      </trkpt>
      <trkpt lat="43.50221" lon="5.11888">
        <ele>-1.3046875</ele>
        <time>2021-05-12T13:33:32Z</time>
      </trkpt>
      <trkpt lat="43.50216" lon="5.1191">
        <ele>-1.7852783203125</ele>
        <time>2021-05-12T13:33:51Z</time>
      </trkpt>
      <trkpt lat="43.50214" lon="5.11921">
        <ele>-1.3046875</ele>
        <time>2021-05-12T13:34:04Z</time>
      </trkpt>
      <trkpt lat="43.50211" lon="5.11924">
        <ele>-1.7852783203125</ele>
        <time>2021-05-12T13:34:09Z</time>
      </trkpt>
      <trkpt lat="43.50201" lon="5.11942">
        <ele>-1.7852783203125</ele>
        <time>2021-05-12T13:34:29Z</time>
      </trkpt>
      <trkpt lat="43.50188" lon="5.11953">
        <ele>-1.7852783203125</ele>
        <time>2021-05-12T13:34:47Z</time>
      </trkpt>
      <trkpt lat="43.50172" lon="5.11978">
        <ele>-1.3046875</ele>
        <time>2021-05-12T13:35:15Z</time>
      </trkpt>
      <trkpt lat="43.50159" lon="5.11994">
        <ele>-1.7852783203125</ele>
        <time>2021-05-12T13:35:40Z</time>
      </trkpt>
      <trkpt lat="43.50151" lon="5.12009">
        <ele>-2.2659912109375</ele>
        <time>2021-05-12T13:36:01Z</time>
      </trkpt>
      <trkpt lat="43.50136" lon="5.12026">
        <ele>-1.7852783203125</ele>
        <time>2021-05-12T13:36:23Z</time>
      </trkpt>
      <trkpt lat="43.50119" lon="5.12041">
        <ele>-1.7852783203125</ele>
        <time>2021-05-12T13:36:51Z</time>
      </trkpt>
      <trkpt lat="43.50097" lon="5.12057">
        <ele>-1.7852783203125</ele>
        <time>2021-05-12T13:37:17Z</time>
      </trkpt>
      <trkpt lat="43.50067" lon="5.12067">
        <ele>-1.3046875</ele>
        <time>2021-05-12T13:37:51Z</time>
      </trkpt>
      <trkpt lat="43.50047" lon="5.12076">
        <ele>-1.3046875</ele>
        <time>2021-05-12T13:38:13Z</time>
      </trkpt>
      <trkpt lat="43.50015" lon="5.12087">
        <ele>-2.2659912109375</ele>
        <time>2021-05-12T13:38:56Z</time>
      </trkpt>
      <trkpt lat="43.50027" lon="5.12078">
        <ele>-1.7852783203125</ele>
        <time>2021-05-12T13:39:54Z</time>
      </trkpt>
      <trkpt lat="43.50018" lon="5.12083">
        <ele>-1.7852783203125</ele>
        <time>2021-05-12T13:39:57Z</time>
      </trkpt>
      <trkpt lat="43.5" lon="5.12092">
        <ele>-1.7852783203125</ele>
        <time>2021-05-12T13:40:16Z</time>
      </trkpt>
      <trkpt lat="43.49982" lon="5.121">
        <ele>-2.2659912109375</ele>
        <time>2021-05-12T13:40:31Z</time>
      </trkpt>
      <trkpt lat="43.49976" lon="5.12103">
        <ele>-1.7852783203125</ele>
        <time>2021-05-12T13:40:36Z</time>
      </trkpt>
      <trkpt lat="43.49974" lon="5.12105">
        <ele>-1.3046875</ele>
        <time>2021-05-12T13:40:39Z</time>
      </trkpt>
      <trkpt lat="43.49972" lon="5.12106">
        <ele>-1.7852783203125</ele>
        <time>2021-05-12T13:40:41Z</time>
      </trkpt>
      <trkpt lat="43.49953" lon="5.12118">
        <ele>-1.7852783203125</ele>
        <time>2021-05-12T13:40:57Z</time>
      </trkpt>
      <trkpt lat="43.49934" lon="5.1213">
        <ele>-2.2659912109375</ele>
        <time>2021-05-12T13:41:13Z</time>
      </trkpt>
      <trkpt lat="43.49905" lon="5.12151">
        <ele>-2.2659912109375</ele>
        <time>2021-05-12T13:41:36Z</time>
      </trkpt>
      <trkpt lat="43.49883" lon="5.12171">
        <ele>-2.2659912109375</ele>
        <time>2021-05-12T13:42:04Z</time>
      </trkpt>
      <trkpt lat="43.49865" lon="5.1219">
        <ele>-2.7467041015625</ele>
        <time>2021-05-12T13:42:27Z</time>
      </trkpt>
      <trkpt lat="43.49847" lon="5.12209">
        <ele>-2.7467041015625</ele>
        <time>2021-05-12T13:42:46Z</time>
      </trkpt>
      <trkpt lat="43.49828" lon="5.12221">
        <ele>-2.7467041015625</ele>
        <time>2021-05-12T13:43:09Z</time>
      </trkpt>
      <trkpt lat="43.49808" lon="5.12237">
        <ele>-2.7467041015625</ele>
        <time>2021-05-12T13:43:29Z</time>
      </trkpt>
      <trkpt lat="43.49805" lon="5.1224">
        <ele>-2.7467041015625</ele>
        <time>2021-05-12T13:43:32Z</time>
      </trkpt>
      <trkpt lat="43.49798" lon="5.12245">
        <ele>-3.227294921875</ele>
        <time>2021-05-12T13:43:39Z</time>
      </trkpt>
      <trkpt lat="43.4978" lon="5.12261">
        <ele>-2.7467041015625</ele>
        <time>2021-05-12T13:43:56Z</time>
      </trkpt>
      <trkpt lat="43.49768" lon="5.12271">
        <ele>-3.227294921875</ele>
        <time>2021-05-12T13:44:13Z</time>
      </trkpt>
      <trkpt lat="43.49752" lon="5.12283">
        <ele>-3.227294921875</ele>
        <time>2021-05-12T13:44:30Z</time>
      </trkpt>
      <trkpt lat="43.49739" lon="5.12295">
        <ele>-3.7078857421875</ele>
        <time>2021-05-12T13:44:48Z</time>
      </trkpt>
      <trkpt lat="43.49723" lon="5.12306">
        <ele>-3.227294921875</ele>
        <time>2021-05-12T13:45:05Z</time>
      </trkpt>
      <trkpt lat="43.49708" lon="5.12322">
        <ele>-3.227294921875</ele>
        <time>2021-05-12T13:45:28Z</time>
      </trkpt>
      <trkpt lat="43.49695" lon="5.12349">
        <ele>-2.7467041015625</ele>
        <time>2021-05-12T13:45:53Z</time>
      </trkpt>
      <trkpt lat="43.49676" lon="5.12367">
        <ele>-3.227294921875</ele>
        <time>2021-05-12T13:46:17Z</time>
      </trkpt>
      <trkpt lat="43.49667" lon="5.12377">
        <ele>-2.2659912109375</ele>
        <time>2021-05-12T13:46:28Z</time>
      </trkpt>
      <trkpt lat="43.49651" lon="5.12398">
        <ele>-2.2659912109375</ele>
        <time>2021-05-12T13:46:44Z</time>
      </trkpt>
      <trkpt lat="43.49647" lon="5.12409">
        <ele>-2.2659912109375</ele>
        <time>2021-05-12T13:46:52Z</time>
      </trkpt>
      <trkpt lat="43.49642" lon="5.1243">
        <ele>-2.2659912109375</ele>
        <time>2021-05-12T13:47:05Z</time>
      </trkpt>
      <trkpt lat="43.49632" lon="5.12462">
        <ele>-1.7852783203125</ele>
        <time>2021-05-12T13:47:25Z</time>
      </trkpt>
      <trkpt lat="43.4963" lon="5.12472">
        <ele>-1.7852783203125</ele>
        <time>2021-05-12T13:47:31Z</time>
      </trkpt>
      <trkpt lat="43.49621" lon="5.12492">
        <ele>-2.2659912109375</ele>
        <time>2021-05-12T13:47:45Z</time>
      </trkpt>
      <trkpt lat="43.49618" lon="5.12495">
        <ele>-2.2659912109375</ele>
        <time>2021-05-12T13:47:48Z</time>
      </trkpt>
      <trkpt lat="43.49601" lon="5.12515">
        <ele>-1.7852783203125</ele>
        <time>2021-05-12T13:48:05Z</time>
      </trkpt>
      <trkpt lat="43.49581" lon="5.12536">
        <ele>-2.2659912109375</ele>
        <time>2021-05-12T13:48:26Z</time>
      </trkpt>
      <trkpt lat="43.4957" lon="5.12547">
        <ele>-1.7852783203125</ele>
        <time>2021-05-12T13:48:39Z</time>
      </trkpt>
      <trkpt lat="43.49557" lon="5.12555">
        <ele>-1.3046875</ele>
        <time>2021-05-12T13:48:53Z</time>
      </trkpt>
      <trkpt lat="43.49555" lon="5.12559">
        <ele>-1.7852783203125</ele>
        <time>2021-05-12T13:49:08Z</time>
      </trkpt>
      <trkpt lat="43.49555" lon="5.12558">
        <ele>-0.8240966796875</ele>
        <time>2021-05-12T13:49:09Z</time>
      </trkpt>
      <trkpt lat="43.49558" lon="5.12556">
        <ele>-1.3046875</ele>
        <time>2021-05-12T13:49:29Z</time>
      </trkpt>
      <trkpt lat="43.49561" lon="5.12558">
        <ele>-2.2659912109375</ele>
        <time>2021-05-12T13:50:16Z</time>
      </trkpt>
      <trkpt lat="43.49559" lon="5.12558">
        <ele>-0.8240966796875</ele>
        <time>2021-05-12T13:55:55Z</time>
      </trkpt>
      <trkpt lat="43.49545" lon="5.12576">
        <ele>-1.3046875</ele>
        <time>2021-05-12T14:00:28Z</time>
      </trkpt>
      <trkpt lat="43.49538" lon="5.12584">
        <ele>-0.8240966796875</ele>
        <time>2021-05-12T14:00:40Z</time>
      </trkpt>
      <trkpt lat="43.49529" lon="5.12596">
        <ele>-0.8240966796875</ele>
        <time>2021-05-12T14:00:54Z</time>
      </trkpt>
      <trkpt lat="43.49518" lon="5.12613">
        <ele>-0.8240966796875</ele>
        <time>2021-05-12T14:01:15Z</time>
      </trkpt>
      <trkpt lat="43.49511" lon="5.12626">
        <ele>-0.8240966796875</ele>
        <time>2021-05-12T14:01:28Z</time>
      </trkpt>
      <trkpt lat="43.49505" lon="5.1264">
        <ele>-0.8240966796875</ele>
        <time>2021-05-12T14:01:42Z</time>
      </trkpt>
      <trkpt lat="43.49499" lon="5.12654">
        <ele>-0.3433837890625</ele>
        <time>2021-05-12T14:01:58Z</time>
      </trkpt>
      <trkpt lat="43.49493" lon="5.12665">
        <ele>-0.3433837890625</ele>
        <time>2021-05-12T14:02:10Z</time>
      </trkpt>
      <trkpt lat="43.49488" lon="5.12682">
        <ele>-0.3433837890625</ele>
        <time>2021-05-12T14:02:24Z</time>
      </trkpt>
      <trkpt lat="43.49486" lon="5.12695">
        <ele>-0.3433837890625</ele>
        <time>2021-05-12T14:02:34Z</time>
      </trkpt>
      <trkpt lat="43.49482" lon="5.12707">
        <ele>-0.3433837890625</ele>
        <time>2021-05-12T14:02:50Z</time>
      </trkpt>
      <trkpt lat="43.49479" lon="5.12714">
        <ele>-0.8240966796875</ele>
        <time>2021-05-12T14:02:59Z</time>
      </trkpt>
      <trkpt lat="43.49478" lon="5.12727">
        <ele>-0.3433837890625</ele>
        <time>2021-05-12T14:03:09Z</time>
      </trkpt>
      <trkpt lat="43.49476" lon="5.12735">
        <ele>-0.3433837890625</ele>
        <time>2021-05-12T14:03:16Z</time>
      </trkpt>
      <trkpt lat="43.49468" lon="5.12755">
        <ele>-0.3433837890625</ele>
        <time>2021-05-12T14:03:31Z</time>
      </trkpt>
      <trkpt lat="43.49462" lon="5.12763">
        <ele>-0.3433837890625</ele>
        <time>2021-05-12T14:03:42Z</time>
      </trkpt>
      <trkpt lat="43.49461" lon="5.12768">
        <ele>-0.3433837890625</ele>
        <time>2021-05-12T14:03:44Z</time>
      </trkpt>
      <trkpt lat="43.49452" lon="5.12778">
        <ele>-0.8240966796875</ele>
        <time>2021-05-12T14:03:58Z</time>
      </trkpt>
      <trkpt lat="43.49451" lon="5.12778">
        <ele>0.137451171875</ele>
        <time>2021-05-12T14:04:01Z</time>
      </trkpt>
      <trkpt lat="43.49448" lon="5.12789">
        <ele>-0.3433837890625</ele>
        <time>2021-05-12T14:04:07Z</time>
      </trkpt>
      <trkpt lat="43.49443" lon="5.12799">
        <ele>0.137451171875</ele>
        <time>2021-05-12T14:04:17Z</time>
      </trkpt>
      <trkpt lat="43.49443" lon="5.12807">
        <ele>0.137451171875</ele>
        <time>2021-05-12T14:04:38Z</time>
      </trkpt>
      <trkpt lat="43.49442" lon="5.12812">
        <ele>-0.3433837890625</ele>
        <time>2021-05-12T14:04:46Z</time>
      </trkpt>
      <trkpt lat="43.4944" lon="5.12828">
        <ele>0.137451171875</ele>
        <time>2021-05-12T14:04:59Z</time>
      </trkpt>
      <trkpt lat="43.49437" lon="5.12833">
        <ele>0.137451171875</ele>
        <time>2021-05-12T14:05:10Z</time>
      </trkpt>
      <trkpt lat="43.49431" lon="5.12851">
        <ele>-0.3433837890625</ele>
        <time>2021-05-12T14:05:25Z</time>
      </trkpt>
      <trkpt lat="43.49425" lon="5.12864">
        <ele>0.137451171875</ele>
        <time>2021-05-12T14:05:39Z</time>
      </trkpt>
      <trkpt lat="43.49419" lon="5.12881">
        <ele>0.137451171875</ele>
        <time>2021-05-12T14:05:55Z</time>
      </trkpt>
      <trkpt lat="43.49412" lon="5.12893">
        <ele>0.137451171875</ele>
        <time>2021-05-12T14:06:08Z</time>
      </trkpt>
      <trkpt lat="43.49408" lon="5.12908">
        <ele>-0.3433837890625</ele>
        <time>2021-05-12T14:06:21Z</time>
      </trkpt>
      <trkpt lat="43.49403" lon="5.12916">
        <ele>0.137451171875</ele>
        <time>2021-05-12T14:06:32Z</time>
      </trkpt>
      <trkpt lat="43.49393" lon="5.12933">
        <ele>-0.3433837890625</ele>
        <time>2021-05-12T14:06:50Z</time>
      </trkpt>
      <trkpt lat="43.49386" lon="5.12944">
        <ele>0.137451171875</ele>
        <time>2021-05-12T14:06:59Z</time>
      </trkpt>
      <trkpt lat="43.49374" lon="5.12953">
        <ele>0.137451171875</ele>
        <time>2021-05-12T14:07:14Z</time>
      </trkpt>
      <trkpt lat="43.49373" lon="5.12955">
        <ele>-0.3433837890625</ele>
        <time>2021-05-12T14:07:17Z</time>
      </trkpt>
      <trkpt lat="43.49368" lon="5.12964">
        <ele>0.137451171875</ele>
        <time>2021-05-12T14:07:26Z</time>
      </trkpt>
      <trkpt lat="43.49367" lon="5.12973">
        <ele>0.137451171875</ele>
        <time>2021-05-12T14:07:38Z</time>
      </trkpt>
      <trkpt lat="43.49368" lon="5.12986">
        <ele>0.137451171875</ele>
        <time>2021-05-12T14:07:52Z</time>
      </trkpt>
      <trkpt lat="43.4937" lon="5.12994">
        <ele>0.6180419921875</ele>
        <time>2021-05-12T14:08:00Z</time>
      </trkpt>
      <trkpt lat="43.49374" lon="5.13007">
        <ele>0.6180419921875</ele>
        <time>2021-05-12T14:08:14Z</time>
      </trkpt>
      <trkpt lat="43.49379" lon="5.13028">
        <ele>0.6180419921875</ele>
        <time>2021-05-12T14:08:30Z</time>
      </trkpt>
      <trkpt lat="43.49385" lon="5.13044">
        <ele>0.6180419921875</ele>
        <time>2021-05-12T14:08:44Z</time>
      </trkpt>
      <trkpt lat="43.49389" lon="5.13058">
        <ele>0.6180419921875</ele>
        <time>2021-05-12T14:08:57Z</time>
      </trkpt>
      <trkpt lat="43.49395" lon="5.13081">
        <ele>0.6180419921875</ele>
        <time>2021-05-12T14:09:15Z</time>
      </trkpt>
      <trkpt lat="43.49399" lon="5.1309">
        <ele>0.6180419921875</ele>
        <time>2021-05-12T14:09:24Z</time>
      </trkpt>
      <trkpt lat="43.49404" lon="5.13109">
        <ele>1.0986328125</ele>
        <time>2021-05-12T14:09:39Z</time>
      </trkpt>
      <trkpt lat="43.49411" lon="5.13126">
        <ele>1.0986328125</ele>
        <time>2021-05-12T14:09:55Z</time>
      </trkpt>
      <trkpt lat="43.49416" lon="5.13144">
        <ele>1.579345703125</ele>
        <time>2021-05-12T14:10:10Z</time>
      </trkpt>
      <trkpt lat="43.49418" lon="5.1316">
        <ele>1.0986328125</ele>
        <time>2021-05-12T14:10:26Z</time>
      </trkpt>
      <trkpt lat="43.49421" lon="5.13161">
        <ele>1.0986328125</ele>
        <time>2021-05-12T14:10:29Z</time>
      </trkpt>
      <trkpt lat="43.49425" lon="5.13177">
        <ele>1.579345703125</ele>
        <time>2021-05-12T14:10:40Z</time>
      </trkpt>
      <trkpt lat="43.49427" lon="5.13181">
        <ele>1.0986328125</ele>
        <time>2021-05-12T14:10:44Z</time>
      </trkpt>
      <trkpt lat="43.49427" lon="5.13188">
        <ele>1.0986328125</ele>
        <time>2021-05-12T14:10:49Z</time>
      </trkpt>
      <trkpt lat="43.4943" lon="5.13195">
        <ele>1.0986328125</ele>
        <time>2021-05-12T14:10:56Z</time>
      </trkpt>
      <trkpt lat="43.49431" lon="5.13211">
        <ele>1.579345703125</ele>
        <time>2021-05-12T14:11:09Z</time>
      </trkpt>
      <trkpt lat="43.49434" lon="5.13229">
        <ele>1.0986328125</ele>
        <time>2021-05-12T14:11:26Z</time>
      </trkpt>
      <trkpt lat="43.49439" lon="5.13251">
        <ele>2.06005859375</ele>
        <time>2021-05-12T14:11:42Z</time>
      </trkpt>
      <trkpt lat="43.4944" lon="5.13254">
        <ele>1.0986328125</ele>
        <time>2021-05-12T14:11:45Z</time>
      </trkpt>
      <trkpt lat="43.49444" lon="5.1327">
        <ele>1.579345703125</ele>
        <time>2021-05-12T14:12:00Z</time>
      </trkpt>
      <trkpt lat="43.49448" lon="5.13283">
        <ele>1.579345703125</ele>
        <time>2021-05-12T14:12:13Z</time>
      </trkpt>
      <trkpt lat="43.49451" lon="5.13298">
        <ele>2.06005859375</ele>
        <time>2021-05-12T14:12:26Z</time>
      </trkpt>
      <trkpt lat="43.49457" lon="5.1331">
        <ele>2.06005859375</ele>
        <time>2021-05-12T14:12:41Z</time>
      </trkpt>
      <trkpt lat="43.49459" lon="5.1333">
        <ele>2.06005859375</ele>
        <time>2021-05-12T14:12:56Z</time>
      </trkpt>
      <trkpt lat="43.49461" lon="5.1335">
        <ele>2.06005859375</ele>
        <time>2021-05-12T14:13:14Z</time>
      </trkpt>
      <trkpt lat="43.49465" lon="5.13368">
        <ele>2.5406494140625</ele>
        <time>2021-05-12T14:13:32Z</time>
      </trkpt>
      <trkpt lat="43.49465" lon="5.13371">
        <ele>2.5406494140625</ele>
        <time>2021-05-12T14:13:59Z</time>
      </trkpt>
      <trkpt lat="43.49468" lon="5.1339">
        <ele>2.5406494140625</ele>
        <time>2021-05-12T14:14:21Z</time>
      </trkpt>
      <trkpt lat="43.4947" lon="5.13404">
        <ele>3.021240234375</ele>
        <time>2021-05-12T14:14:36Z</time>
      </trkpt>
      <trkpt lat="43.49475" lon="5.13408">
        <ele>3.021240234375</ele>
        <time>2021-05-12T14:14:43Z</time>
      </trkpt>
      <trkpt lat="43.49483" lon="5.13409">
        <ele>3.021240234375</ele>
        <time>2021-05-12T14:14:59Z</time>
      </trkpt>
      <trkpt lat="43.49487" lon="5.13414">
        <ele>3.982666015625</ele>
        <time>2021-05-12T14:16:10Z</time>
      </trkpt>
      <trkpt lat="43.49488" lon="5.13413">
        <ele>3.982666015625</ele>
        <time>2021-05-12T14:16:14Z</time>
      </trkpt>
      <trkpt lat="43.49486" lon="5.13415">
        <ele>3.501953125</ele>
        <time>2021-05-12T14:16:26Z</time>
      </trkpt>
      <trkpt lat="43.4949" lon="5.13427">
        <ele>3.501953125</ele>
        <time>2021-05-12T14:16:41Z</time>
      </trkpt>
      <trkpt lat="43.49492" lon="5.13434">
        <ele>3.501953125</ele>
        <time>2021-05-12T14:16:45Z</time>
      </trkpt>
      <trkpt lat="43.49497" lon="5.13445">
        <ele>3.982666015625</ele>
        <time>2021-05-12T14:17:01Z</time>
      </trkpt>
      <trkpt lat="43.49505" lon="5.13467">
        <ele>3.501953125</ele>
        <time>2021-05-12T14:17:21Z</time>
      </trkpt>
      <trkpt lat="43.49509" lon="5.13486">
        <ele>3.982666015625</ele>
        <time>2021-05-12T14:17:38Z</time>
      </trkpt>
      <trkpt lat="43.4951" lon="5.13491">
        <ele>3.982666015625</ele>
        <time>2021-05-12T14:18:02Z</time>
      </trkpt>
      <trkpt lat="43.49516" lon="5.13503">
        <ele>4.4632568359375</ele>
        <time>2021-05-12T14:19:44Z</time>
      </trkpt>
      <trkpt lat="43.49518" lon="5.13504">
        <ele>3.982666015625</ele>
        <time>2021-05-12T14:20:21Z</time>
      </trkpt>
      <trkpt lat="43.49521" lon="5.13516">
        <ele>3.501953125</ele>
        <time>2021-05-12T14:21:03Z</time>
      </trkpt>
      <trkpt lat="43.49534" lon="5.13537">
        <ele>3.982666015625</ele>
        <time>2021-05-12T14:21:29Z</time>
      </trkpt>
      <trkpt lat="43.49537" lon="5.13545">
        <ele>3.982666015625</ele>
        <time>2021-05-12T14:21:36Z</time>
      </trkpt>
      <trkpt lat="43.4954" lon="5.13553">
        <ele>4.4632568359375</ele>
        <time>2021-05-12T14:21:43Z</time>
      </trkpt>
      <trkpt lat="43.49545" lon="5.13566">
        <ele>3.982666015625</ele>
        <time>2021-05-12T14:21:55Z</time>
      </trkpt>
      <trkpt lat="43.49551" lon="5.13586">
        <ele>4.4632568359375</ele>
        <time>2021-05-12T14:22:14Z</time>
      </trkpt>
      <trkpt lat="43.49556" lon="5.13602">
        <ele>4.4632568359375</ele>
        <time>2021-05-12T14:22:32Z</time>
      </trkpt>
      <trkpt lat="43.49563" lon="5.13614">
        <ele>4.4632568359375</ele>
        <time>2021-05-12T14:22:53Z</time>
      </trkpt>
      <trkpt lat="43.4957" lon="5.13626">
        <ele>4.4632568359375</ele>
        <time>2021-05-12T14:23:06Z</time>
      </trkpt>
      <trkpt lat="43.49585" lon="5.1365">
        <ele>4.4632568359375</ele>
        <time>2021-05-12T14:23:28Z</time>
      </trkpt>
      <trkpt lat="43.49597" lon="5.13665">
        <ele>4.4632568359375</ele>
        <time>2021-05-12T14:23:45Z</time>
      </trkpt>
      <trkpt lat="43.496" lon="5.13671">
        <ele>4.94384765625</ele>
        <time>2021-05-12T14:23:50Z</time>
      </trkpt>
      <trkpt lat="43.49612" lon="5.13688">
        <ele>5.424560546875</ele>
        <time>2021-05-12T14:24:06Z</time>
      </trkpt>
      <trkpt lat="43.49613" lon="5.13696">
        <ele>5.424560546875</ele>
        <time>2021-05-12T14:24:11Z</time>
      </trkpt>
      <trkpt lat="43.49617" lon="5.13699">
        <ele>5.9052734375</ele>
        <time>2021-05-12T14:24:15Z</time>
      </trkpt>
      <trkpt lat="43.49621" lon="5.137">
        <ele>5.424560546875</ele>
        <time>2021-05-12T14:24:18Z</time>
      </trkpt>
      <trkpt lat="43.49624" lon="5.13701">
        <ele>5.9052734375</ele>
        <time>2021-05-12T14:24:37Z</time>
      </trkpt>
      <trkpt lat="43.49624" lon="5.13708">
        <ele>6.3858642578125</ele>
        <time>2021-05-12T14:25:23Z</time>
      </trkpt>
      <trkpt lat="43.49633" lon="5.13726">
        <ele>5.9052734375</ele>
        <time>2021-05-12T14:27:12Z</time>
      </trkpt>
      <trkpt lat="43.49649" lon="5.13743">
        <ele>5.9052734375</ele>
        <time>2021-05-12T14:27:29Z</time>
      </trkpt>
      <trkpt lat="43.49652" lon="5.13747">
        <ele>5.424560546875</ele>
        <time>2021-05-12T14:27:46Z</time>
      </trkpt>
      <trkpt lat="43.49655" lon="5.13749">
        <ele>5.9052734375</ele>
        <time>2021-05-12T14:28:05Z</time>
      </trkpt>
      <trkpt lat="43.49662" lon="5.13744">
        <ele>5.424560546875</ele>
        <time>2021-05-12T14:28:20Z</time>
      </trkpt>
      <trkpt lat="43.49656" lon="5.13748">
        <ele>5.424560546875</ele>
        <time>2021-05-12T14:28:35Z</time>
      </trkpt>
      <trkpt lat="43.4966" lon="5.13755">
        <ele>5.424560546875</ele>
        <time>2021-05-12T14:28:55Z</time>
      </trkpt>
      <trkpt lat="43.49665" lon="5.13763">
        <ele>4.94384765625</ele>
        <time>2021-05-12T14:29:03Z</time>
      </trkpt>
      <trkpt lat="43.49675" lon="5.1378">
        <ele>4.94384765625</ele>
        <time>2021-05-12T14:29:19Z</time>
      </trkpt>
      <trkpt lat="43.49684" lon="5.13792">
        <ele>5.424560546875</ele>
        <time>2021-05-12T14:29:36Z</time>
      </trkpt>
      <trkpt lat="43.49695" lon="5.13803">
        <ele>5.424560546875</ele>
        <time>2021-05-12T14:29:52Z</time>
      </trkpt>
      <trkpt lat="43.49709" lon="5.13815">
        <ele>4.94384765625</ele>
        <time>2021-05-12T14:30:09Z</time>
      </trkpt>
      <trkpt lat="43.49718" lon="5.13827">
        <ele>5.9052734375</ele>
        <time>2021-05-12T14:30:27Z</time>
      </trkpt>
      <trkpt lat="43.49738" lon="5.13849">
        <ele>5.9052734375</ele>
        <time>2021-05-12T14:30:53Z</time>
      </trkpt>
      <trkpt lat="43.49752" lon="5.1386">
        <ele>5.9052734375</ele>
        <time>2021-05-12T14:31:11Z</time>
      </trkpt>
      <trkpt lat="43.49772" lon="5.13872">
        <ele>5.9052734375</ele>
        <time>2021-05-12T14:31:37Z</time>
      </trkpt>
      <trkpt lat="43.49779" lon="5.13877">
        <ele>6.3858642578125</ele>
        <time>2021-05-12T14:31:46Z</time>
      </trkpt>
      <trkpt lat="43.49791" lon="5.13897">
        <ele>6.3858642578125</ele>
        <time>2021-05-12T14:32:08Z</time>
      </trkpt>
      <trkpt lat="43.49793" lon="5.139">
        <ele>5.9052734375</ele>
        <time>2021-05-12T14:32:12Z</time>
      </trkpt>
      <trkpt lat="43.49802" lon="5.13918">
        <ele>5.9052734375</ele>
        <time>2021-05-12T14:32:29Z</time>
      </trkpt>
      <trkpt lat="43.49812" lon="5.13943">
        <ele>6.3858642578125</ele>
        <time>2021-05-12T14:32:54Z</time>
      </trkpt>
      <trkpt lat="43.49822" lon="5.13969">
        <ele>5.9052734375</ele>
        <time>2021-05-12T14:33:17Z</time>
      </trkpt>
      <trkpt lat="43.49832" lon="5.13993">
        <ele>5.9052734375</ele>
        <time>2021-05-12T14:33:40Z</time>
      </trkpt>
      <trkpt lat="43.4984" lon="5.14011">
        <ele>5.9052734375</ele>
        <time>2021-05-12T14:34:00Z</time>
      </trkpt>
      <trkpt lat="43.49851" lon="5.14034">
        <ele>5.9052734375</ele>
        <time>2021-05-12T14:34:22Z</time>
      </trkpt>
      <trkpt lat="43.49856" lon="5.14044">
        <ele>6.3858642578125</ele>
        <time>2021-05-12T14:34:37Z</time>
      </trkpt>
      <trkpt lat="43.4986" lon="5.14059">
        <ele>6.3858642578125</ele>
        <time>2021-05-12T14:34:55Z</time>
      </trkpt>
      <trkpt lat="43.4987" lon="5.14082">
        <ele>6.3858642578125</ele>
        <time>2021-05-12T14:35:18Z</time>
      </trkpt>
      <trkpt lat="43.49879" lon="5.14107">
        <ele>6.3858642578125</ele>
        <time>2021-05-12T14:35:42Z</time>
      </trkpt>
      <trkpt lat="43.49889" lon="5.14125">
        <ele>6.3858642578125</ele>
        <time>2021-05-12T14:36:01Z</time>
      </trkpt>
      <trkpt lat="43.49897" lon="5.14154">
        <ele>5.9052734375</ele>
        <time>2021-05-12T14:36:26Z</time>
      </trkpt>
      <trkpt lat="43.49906" lon="5.14178">
        <ele>5.9052734375</ele>
        <time>2021-05-12T14:36:49Z</time>
      </trkpt>
      <trkpt lat="43.49913" lon="5.14195">
        <ele>5.9052734375</ele>
        <time>2021-05-12T14:37:07Z</time>
      </trkpt>
      <trkpt lat="43.49912" lon="5.142">
        <ele>5.9052734375</ele>
        <time>2021-05-12T14:37:27Z</time>
      </trkpt>
      <trkpt lat="43.49909" lon="5.14212">
        <ele>5.9052734375</ele>
        <time>2021-05-12T14:37:50Z</time>
      </trkpt>
      <trkpt lat="43.49901" lon="5.1422">
        <ele>5.9052734375</ele>
        <time>2021-05-12T14:38:03Z</time>
      </trkpt>
      <trkpt lat="43.49884" lon="5.14233">
        <ele>5.9052734375</ele>
        <time>2021-05-12T14:38:25Z</time>
      </trkpt>
      <trkpt lat="43.4987" lon="5.14243">
        <ele>5.9052734375</ele>
        <time>2021-05-12T14:38:41Z</time>
      </trkpt>
      <trkpt lat="43.49867" lon="5.14244">
        <ele>5.9052734375</ele>
        <time>2021-05-12T14:38:44Z</time>
      </trkpt>
      <trkpt lat="43.49862" lon="5.14245">
        <ele>5.9052734375</ele>
        <time>2021-05-12T14:38:49Z</time>
      </trkpt>
      <trkpt lat="43.49849" lon="5.14255">
        <ele>6.3858642578125</ele>
        <time>2021-05-12T14:39:10Z</time>
      </trkpt>
      <trkpt lat="43.49837" lon="5.14266">
        <ele>5.9052734375</ele>
        <time>2021-05-12T14:39:27Z</time>
      </trkpt>
      <trkpt lat="43.49811" lon="5.14284">
        <ele>5.9052734375</ele>
        <time>2021-05-12T14:39:59Z</time>
      </trkpt>
      <trkpt lat="43.49783" lon="5.14305">
        <ele>5.9052734375</ele>
        <time>2021-05-12T14:40:28Z</time>
      </trkpt>
      <trkpt lat="43.49759" lon="5.14324">
        <ele>5.9052734375</ele>
        <time>2021-05-12T14:40:59Z</time>
      </trkpt>
      <trkpt lat="43.49733" lon="5.14347">
        <ele>5.424560546875</ele>
        <time>2021-05-12T14:41:31Z</time>
      </trkpt>
      <trkpt lat="43.49707" lon="5.14349">
        <ele>4.94384765625</ele>
        <time>2021-05-12T14:41:55Z</time>
      </trkpt>
      <trkpt lat="43.49692" lon="5.14358">
        <ele>4.94384765625</ele>
        <time>2021-05-12T14:42:16Z</time>
      </trkpt>
      <trkpt lat="43.49674" lon="5.14373">
        <ele>4.4632568359375</ele>
        <time>2021-05-12T14:42:36Z</time>
      </trkpt>
      <trkpt lat="43.49662" lon="5.14382">
        <ele>4.94384765625</ele>
        <time>2021-05-12T14:42:48Z</time>
      </trkpt>
      <trkpt lat="43.49646" lon="5.144">
        <ele>4.4632568359375</ele>
        <time>2021-05-12T14:43:08Z</time>
      </trkpt>
      <trkpt lat="43.49634" lon="5.14415">
        <ele>3.982666015625</ele>
        <time>2021-05-12T14:43:23Z</time>
      </trkpt>
      <trkpt lat="43.49624" lon="5.14422">
        <ele>4.4632568359375</ele>
        <time>2021-05-12T14:43:33Z</time>
      </trkpt>
      <trkpt lat="43.49616" lon="5.14432">
        <ele>4.4632568359375</ele>
        <time>2021-05-12T14:43:44Z</time>
      </trkpt>
      <trkpt lat="43.49598" lon="5.14454">
        <ele>4.4632568359375</ele>
        <time>2021-05-12T14:44:11Z</time>
      </trkpt>
      <trkpt lat="43.49575" lon="5.1448">
        <ele>4.94384765625</ele>
        <time>2021-05-12T14:44:40Z</time>
      </trkpt>
      <trkpt lat="43.49567" lon="5.14486">
        <ele>4.94384765625</ele>
        <time>2021-05-12T14:44:50Z</time>
      </trkpt>
      <trkpt lat="43.49551" lon="5.14491">
        <ele>4.4632568359375</ele>
        <time>2021-05-12T14:45:04Z</time>
      </trkpt>
      <trkpt lat="43.49549" lon="5.14491">
        <ele>4.4632568359375</ele>
        <time>2021-05-12T14:45:06Z</time>
      </trkpt>
      <trkpt lat="43.4953" lon="5.14504">
        <ele>4.4632568359375</ele>
        <time>2021-05-12T14:45:25Z</time>
      </trkpt>
      <trkpt lat="43.49528" lon="5.14506">
        <ele>4.4632568359375</ele>
        <time>2021-05-12T14:45:27Z</time>
      </trkpt>
      <trkpt lat="43.49526" lon="5.14512">
        <ele>4.4632568359375</ele>
        <time>2021-05-12T14:45:32Z</time>
      </trkpt>
      <trkpt lat="43.49533" lon="5.14537">
        <ele>4.4632568359375</ele>
        <time>2021-05-12T14:45:52Z</time>
      </trkpt>
      <trkpt lat="43.49538" lon="5.14557">
        <ele>4.4632568359375</ele>
        <time>2021-05-12T14:46:07Z</time>
      </trkpt>
      <trkpt lat="43.49544" lon="5.1458">
        <ele>4.4632568359375</ele>
        <time>2021-05-12T14:46:24Z</time>
      </trkpt>
      <trkpt lat="43.49544" lon="5.14581">
        <ele>4.94384765625</ele>
        <time>2021-05-12T14:46:25Z</time>
      </trkpt>
      <trkpt lat="43.49549" lon="5.14612">
        <ele>4.94384765625</ele>
        <time>2021-05-12T14:46:46Z</time>
      </trkpt>
      <trkpt lat="43.49556" lon="5.14633">
        <ele>4.4632568359375</ele>
        <time>2021-05-12T14:47:05Z</time>
      </trkpt>
      <trkpt lat="43.49565" lon="5.14657">
        <ele>4.4632568359375</ele>
        <time>2021-05-12T14:47:28Z</time>
      </trkpt>
      <trkpt lat="43.49571" lon="5.14677">
        <ele>4.4632568359375</ele>
        <time>2021-05-12T14:47:47Z</time>
      </trkpt>
      <trkpt lat="43.49577" lon="5.14698">
        <ele>4.4632568359375</ele>
        <time>2021-05-12T14:48:08Z</time>
      </trkpt>
      <trkpt lat="43.49586" lon="5.14726">
        <ele>4.94384765625</ele>
        <time>2021-05-12T14:48:34Z</time>
      </trkpt>
      <trkpt lat="43.4959" lon="5.14744">
        <ele>5.424560546875</ele>
        <time>2021-05-12T14:48:51Z</time>
      </trkpt>
      <trkpt lat="43.49596" lon="5.14764">
        <ele>4.94384765625</ele>
        <time>2021-05-12T14:49:09Z</time>
      </trkpt>
      <trkpt lat="43.49598" lon="5.14768">
        <ele>5.424560546875</ele>
        <time>2021-05-12T14:49:13Z</time>
      </trkpt>
      <trkpt lat="43.49604" lon="5.14788">
        <ele>4.94384765625</ele>
        <time>2021-05-12T14:49:33Z</time>
      </trkpt>
      <trkpt lat="43.49608" lon="5.14795">
        <ele>4.94384765625</ele>
        <time>2021-05-12T14:49:40Z</time>
      </trkpt>
      <trkpt lat="43.49614" lon="5.14815">
        <ele>4.94384765625</ele>
        <time>2021-05-12T14:49:58Z</time>
      </trkpt>
      <trkpt lat="43.49624" lon="5.14837">
        <ele>4.94384765625</ele>
        <time>2021-05-12T14:50:20Z</time>
      </trkpt>
      <trkpt lat="43.49633" lon="5.14859">
        <ele>4.94384765625</ele>
        <time>2021-05-12T14:50:40Z</time>
      </trkpt>
      <trkpt lat="43.4964" lon="5.14877">
        <ele>4.4632568359375</ele>
        <time>2021-05-12T14:50:56Z</time>
      </trkpt>
      <trkpt lat="43.49647" lon="5.14897">
        <ele>4.94384765625</ele>
        <time>2021-05-12T14:51:16Z</time>
      </trkpt>
      <trkpt lat="43.49652" lon="5.14898">
        <ele>4.4632568359375</ele>
        <time>2021-05-12T14:51:34Z</time>
      </trkpt>
      <trkpt lat="43.49638" lon="5.14905">
        <ele>5.424560546875</ele>
        <time>2021-05-12T14:52:01Z</time>
      </trkpt>
      <trkpt lat="43.4963" lon="5.1491">
        <ele>4.94384765625</ele>
        <time>2021-05-12T14:52:10Z</time>
      </trkpt>
      <trkpt lat="43.49618" lon="5.14918">
        <ele>4.94384765625</ele>
        <time>2021-05-12T14:52:24Z</time>
      </trkpt>
      <trkpt lat="43.49599" lon="5.14925">
        <ele>4.94384765625</ele>
        <time>2021-05-12T14:52:43Z</time>
      </trkpt>
      <trkpt lat="43.49588" lon="5.14927">
        <ele>5.424560546875</ele>
        <time>2021-05-12T14:52:56Z</time>
      </trkpt>
      <trkpt lat="43.49565" lon="5.14939">
        <ele>4.4632568359375</ele>
        <time>2021-05-12T14:53:21Z</time>
      </trkpt>
      <trkpt lat="43.49543" lon="5.14944">
        <ele>4.94384765625</ele>
        <time>2021-05-12T14:53:40Z</time>
      </trkpt>
      <trkpt lat="43.49526" lon="5.14949">
        <ele>4.94384765625</ele>
        <time>2021-05-12T14:54:00Z</time>
      </trkpt>
      <trkpt lat="43.49507" lon="5.14955">
        <ele>4.4632568359375</ele>
        <time>2021-05-12T14:54:19Z</time>
      </trkpt>
      <trkpt lat="43.49501" lon="5.14961">
        <ele>4.4632568359375</ele>
        <time>2021-05-12T14:54:25Z</time>
      </trkpt>
      <trkpt lat="43.49487" lon="5.1498">
        <ele>4.4632568359375</ele>
        <time>2021-05-12T14:54:43Z</time>
      </trkpt>
      <trkpt lat="43.49472" lon="5.14994">
        <ele>4.94384765625</ele>
        <time>2021-05-12T14:54:58Z</time>
      </trkpt>
      <trkpt lat="43.49468" lon="5.15">
        <ele>4.4632568359375</ele>
        <time>2021-05-12T14:55:02Z</time>
      </trkpt>
      <trkpt lat="43.49458" lon="5.15011">
        <ele>5.424560546875</ele>
        <time>2021-05-12T14:55:14Z</time>
      </trkpt>
      <trkpt lat="43.49446" lon="5.15022">
        <ele>4.94384765625</ele>
        <time>2021-05-12T14:55:30Z</time>
      </trkpt>
      <trkpt lat="43.49433" lon="5.15035">
        <ele>4.4632568359375</ele>
        <time>2021-05-12T14:55:44Z</time>
      </trkpt>
      <trkpt lat="43.49417" lon="5.1505">
        <ele>4.94384765625</ele>
        <time>2021-05-12T14:56:04Z</time>
      </trkpt>
      <trkpt lat="43.49416" lon="5.15061">
        <ele>4.94384765625</ele>
        <time>2021-05-12T14:56:14Z</time>
      </trkpt>
      <trkpt lat="43.4942" lon="5.15084">
        <ele>4.94384765625</ele>
        <time>2021-05-12T14:56:31Z</time>
      </trkpt>
      <trkpt lat="43.49421" lon="5.15091">
        <ele>4.94384765625</ele>
        <time>2021-05-12T14:56:34Z</time>
      </trkpt>
      <trkpt lat="43.4943" lon="5.1512">
        <ele>5.424560546875</ele>
        <time>2021-05-12T14:56:55Z</time>
      </trkpt>
      <trkpt lat="43.49432" lon="5.15132">
        <ele>5.424560546875</ele>
        <time>2021-05-12T14:57:03Z</time>
      </trkpt>
      <trkpt lat="43.4944" lon="5.15153">
        <ele>5.424560546875</ele>
        <time>2021-05-12T14:57:19Z</time>
      </trkpt>
      <trkpt lat="43.49444" lon="5.15172">
        <ele>5.424560546875</ele>
        <time>2021-05-12T14:57:36Z</time>
      </trkpt>
      <trkpt lat="43.49451" lon="5.15198">
        <ele>5.9052734375</ele>
        <time>2021-05-12T14:57:56Z</time>
      </trkpt>
      <trkpt lat="43.49457" lon="5.15226">
        <ele>5.9052734375</ele>
        <time>2021-05-12T14:58:17Z</time>
      </trkpt>
      <trkpt lat="43.49461" lon="5.15243">
        <ele>5.9052734375</ele>
        <time>2021-05-12T14:58:27Z</time>
      </trkpt>
      <trkpt lat="43.49466" lon="5.15269">
        <ele>5.9052734375</ele>
        <time>2021-05-12T14:58:45Z</time>
      </trkpt>
      <trkpt lat="43.49476" lon="5.15316">
        <ele>5.9052734375</ele>
        <time>2021-05-12T14:59:17Z</time>
      </trkpt>
      <trkpt lat="43.49482" lon="5.1535">
        <ele>5.9052734375</ele>
        <time>2021-05-12T14:59:41Z</time>
      </trkpt>
      <trkpt lat="43.49491" lon="5.15373">
        <ele>5.9052734375</ele>
        <time>2021-05-12T15:00:02Z</time>
      </trkpt>
      <trkpt lat="43.49499" lon="5.15386">
        <ele>6.3858642578125</ele>
        <time>2021-05-12T15:00:20Z</time>
      </trkpt>
      <trkpt lat="43.49503" lon="5.15399">
        <ele>6.3858642578125</ele>
        <time>2021-05-12T15:00:34Z</time>
      </trkpt>
      <trkpt lat="43.49503" lon="5.15399">
        <ele>7.34716796875</ele>
        <time>2021-05-12T15:00:46Z</time>
      </trkpt>
    </trkseg>
  </trk>
</gpx>